Time,TemperatureF,DewpointF,PressureIn,WindDirection,WindDirectionDegrees,WindSpeedMPH,WindSpeedGustMPH,Humidity,HourlyPrecipIn,Conditions,Clouds,dailyrainin,SoftwareType,DateUTC
2013-08-13 00:00:00,77.4,72.9,29.97,North,0,0.0,0.0,86,0.00,,---,0.00,VWS V14.01,2013-08-13 04:00:00,
2013-08-13 00:01:00,77.4,72.9,29.97,North,0,0.0,0.0,86,0.00,,---,0.00,VWS V14.01,2013-08-13 04:01:00,
2013-08-13 00:03:00,77.4,72.9,29.97,North,0,0.0,0.0,86,0.00,,---,0.00,VWS V14.01,2013-08-13 04:03:00,
2013-08-13 00:06:00,77.4,72.5,29.97,North,0,0.0,0.0,85,0.00,,---,0.00,VWS V14.01,2013-08-13 04:06:00,
2013-08-13 00:07:00,77.4,72.5,29.97,North,0,0.0,0.0,85,0.00,,---,0.00,VWS V14.01,2013-08-13 04:07:00,
2013-08-13 00:08:00,77.4,72.5,29.97,North,0,0.0,0.0,85,0.00,,---,0.00,VWS V14.01,2013-08-13 04:08:00,
2013-08-13 00:09:00,77.4,72.5,29.97,North,0,0.0,0.0,85,0.00,,---,0.00,VWS V14.01,2013-08-13 04:09:00,
2013-08-13 00:12:00,77.4,72.5,29.97,North,0,0.0,0.0,85,0.00,,---,0.00,VWS V14.01,2013-08-13 04:12:00,
2013-08-13 00:14:00,77.6,72.7,29.97,North,0,0.0,0.0,85,0.00,,---,0.00,VWS V14.01,2013-08-13 04:14:00,
2013-08-13 00:17:00,77.6,72.4,29.97,North,0,0.0,0.0,84,0.00,,---,0.00,VWS V14.01,2013-08-13 04:17:00,
2013-08-13 00:18:00,77.6,72.4,29.97,North,0,0.0,0.0,84,0.00,,---,0.00,VWS V14.01,2013-08-13 04:18:00,
2013-08-13 00:19:00,77.6,72.4,29.96,North,0,0.0,0.0,84,0.00,,---,0.00,VWS V14.01,2013-08-13 04:19:00,
2013-08-13 00:23:00,77.7,72.1,29.96,North,0,0.0,0.0,83,0.00,,---,0.00,VWS V14.01,2013-08-13 04:23:00,
2013-08-13 00:24:00,77.7,72.1,29.96,North,0,0.0,0.0,83,0.00,,---,0.00,VWS V14.01,2013-08-13 04:24:00,
2013-08-13 00:26:00,77.7,72.1,29.96,North,0,0.0,0.0,83,0.00,,---,0.00,VWS V14.01,2013-08-13 04:26:00,
2013-08-13 00:30:00,77.9,72.3,29.96,North,0,0.0,0.0,83,0.00,,---,0.00,VWS V14.01,2013-08-13 04:30:00,
2013-08-13 00:31:00,77.9,72.3,29.96,North,0,0.0,0.0,83,0.00,,---,0.00,VWS V14.01,2013-08-13 04:31:00,
2013-08-13 00:35:00,77.9,72.3,29.95,North,0,0.0,0.0,83,0.00,,---,0.00,VWS V14.01,2013-08-13 04:35:00,
2013-08-13 00:36:00,78.1,72.5,29.95,North,0,0.0,0.0,83,0.00,,---,0.00,VWS V14.01,2013-08-13 04:36:00,
2013-08-13 00:37:00,78.1,72.5,29.95,North,0,0.0,0.0,83,0.00,,---,0.00,VWS V14.01,2013-08-13 04:37:00,
2013-08-13 00:40:00,78.1,72.5,29.95,North,0,0.0,0.0,83,0.00,,---,0.00,VWS V14.01,2013-08-13 04:40:00,
2013-08-13 00:42:00,78.1,72.5,29.95,North,0,0.0,0.0,83,0.00,,---,0.00,VWS V14.01,2013-08-13 04:42:00,
2013-08-13 00:46:00,78.1,72.5,29.95,North,0,0.0,0.0,83,0.00,,---,0.00,VWS V14.01,2013-08-13 04:46:00,
2013-08-13 00:47:00,78.1,72.5,29.95,North,0,0.0,0.0,83,0.00,,---,0.00,VWS V14.01,2013-08-13 04:47:00,
2013-08-13 00:49:00,78.1,72.5,29.95,North,0,0.0,0.0,83,0.00,,---,0.00,VWS V14.01,2013-08-13 04:49:00,
2013-08-13 00:51:00,78.1,72.5,29.95,North,0,0.0,0.0,83,0.00,,---,0.00,VWS V14.01,2013-08-13 04:51:00,
2013-08-13 00:53:00,78.1,72.5,29.95,North,0,0.0,0.0,83,0.00,,---,0.00,VWS V14.01,2013-08-13 04:53:00,
2013-08-13 00:54:00,78.1,72.5,29.95,North,0,0.0,0.0,83,0.00,,---,0.00,VWS V14.01,2013-08-13 04:54:00,
2013-08-13 00:55:00,78.1,72.5,29.95,North,0,0.0,0.0,83,0.00,,---,0.00,VWS V14.01,2013-08-13 04:55:00,
2013-08-13 00:57:00,78.1,72.5,29.95,North,0,0.0,0.0,83,0.00,,---,0.00,VWS V14.01,2013-08-13 04:57:00,
2013-08-13 00:58:00,78.3,72.7,29.95,North,0,0.0,0.0,83,0.00,,---,0.00,VWS V14.01,2013-08-13 04:58:00,
2013-08-13 00:59:00,78.3,72.7,29.95,North,0,0.0,0.0,83,0.00,,---,0.00,VWS V14.01,2013-08-13 04:59:00,
2013-08-13 01:00:00,78.3,72.7,29.95,North,0,0.0,0.0,83,0.00,,---,0.00,VWS V14.01,2013-08-13 05:00:00,
2013-08-13 01:01:00,78.3,72.7,29.95,North,0,0.0,0.0,83,0.00,,---,0.00,VWS V14.01,2013-08-13 05:01:00,
2013-08-13 01:02:00,78.3,72.7,29.95,North,0,0.0,0.0,83,0.00,,---,0.00,VWS V14.01,2013-08-13 05:02:00,
2013-08-13 01:04:00,78.1,72.5,29.95,North,0,0.0,0.0,83,0.00,,---,0.00,VWS V14.01,2013-08-13 05:04:00,
2013-08-13 01:05:00,78.1,72.5,29.95,North,0,0.0,0.0,83,0.00,,---,0.00,VWS V14.01,2013-08-13 05:05:00,
2013-08-13 01:06:00,78.1,72.5,29.95,North,0,0.0,0.0,83,0.00,,---,0.00,VWS V14.01,2013-08-13 05:06:00,
2013-08-13 01:07:00,78.1,72.5,29.95,North,0,0.0,0.0,83,0.00,,---,0.00,VWS V14.01,2013-08-13 05:07:00,
2013-08-13 01:08:00,78.1,72.5,29.95,North,0,0.0,1.0,83,0.00,,---,0.00,VWS V14.01,2013-08-13 05:08:00,
2013-08-13 01:10:00,78.1,72.5,29.95,North,0,0.0,1.0,83,0.00,,---,0.00,VWS V14.01,2013-08-13 05:10:00,
2013-08-13 01:11:00,78.1,72.5,29.95,North,0,0.0,1.0,83,0.00,,---,0.00,VWS V14.01,2013-08-13 05:11:00,
2013-08-13 01:12:00,78.1,72.9,29.95,North,0,0.0,1.0,84,0.00,,---,0.00,VWS V14.01,2013-08-13 05:12:00,
2013-08-13 01:14:00,78.1,72.9,29.95,North,0,0.0,1.0,84,0.00,,---,0.00,VWS V14.01,2013-08-13 05:14:00,
2013-08-13 01:15:00,78.1,72.9,29.95,North,0,0.0,2.0,84,0.00,,---,0.00,VWS V14.01,2013-08-13 05:15:00,
2013-08-13 01:16:00,78.1,72.9,29.95,North,0,0.0,2.0,84,0.00,,---,0.00,VWS V14.01,2013-08-13 05:16:00,
2013-08-13 01:17:00,77.9,72.7,29.95,North,0,0.0,2.0,84,0.00,,---,0.00,VWS V14.01,2013-08-13 05:17:00,
2013-08-13 01:20:00,77.9,72.7,29.95,North,0,0.0,2.0,84,0.00,,---,0.00,VWS V14.01,2013-08-13 05:20:00,
2013-08-13 01:22:00,77.9,72.7,29.95,North,0,0.0,2.0,84,0.00,,---,0.00,VWS V14.01,2013-08-13 05:22:00,
2013-08-13 01:23:00,77.9,72.7,29.95,North,0,0.0,2.0,84,0.00,,---,0.00,VWS V14.01,2013-08-13 05:23:00,
2013-08-13 01:26:00,77.9,72.7,29.95,North,0,0.0,2.0,84,0.00,,---,0.00,VWS V14.01,2013-08-13 05:26:00,
2013-08-13 01:27:00,78.1,72.9,29.95,North,0,0.0,2.0,84,0.00,,---,0.00,VWS V14.01,2013-08-13 05:27:00,
2013-08-13 01:28:00,78.1,72.9,29.95,North,0,0.0,2.0,84,0.00,,---,0.00,VWS V14.01,2013-08-13 05:28:00,
2013-08-13 01:29:00,78.1,72.9,29.95,North,0,0.0,2.0,84,0.00,,---,0.00,VWS V14.01,2013-08-13 05:29:00,
2013-08-13 01:30:00,78.1,72.9,29.95,North,0,0.0,2.0,84,0.00,,---,0.00,VWS V14.01,2013-08-13 05:30:00,
2013-08-13 01:31:00,77.9,72.7,29.95,North,0,0.0,2.0,84,0.00,,---,0.00,VWS V14.01,2013-08-13 05:31:00,
2013-08-13 01:32:00,77.9,72.7,29.95,North,0,0.0,2.0,84,0.00,,---,0.00,VWS V14.01,2013-08-13 05:32:00,
2013-08-13 01:34:00,77.9,73.0,29.95,North,0,0.0,2.0,85,0.00,,---,0.00,VWS V14.01,2013-08-13 05:34:00,
2013-08-13 01:35:00,77.9,73.0,29.95,North,0,0.0,2.0,85,0.00,,---,0.00,VWS V14.01,2013-08-13 05:35:00,
2013-08-13 01:36:00,77.9,73.0,29.95,North,0,0.0,2.0,85,0.00,,---,0.00,VWS V14.01,2013-08-13 05:36:00,
2013-08-13 01:37:00,77.9,73.0,29.95,North,0,0.0,2.0,85,0.00,,---,0.00,VWS V14.01,2013-08-13 05:37:00,
2013-08-13 01:38:00,77.9,73.0,29.95,North,0,0.0,2.0,85,0.00,,---,0.00,VWS V14.01,2013-08-13 05:38:00,
2013-08-13 01:40:00,77.9,73.0,29.95,North,0,0.0,2.0,85,0.00,,---,0.00,VWS V14.01,2013-08-13 05:40:00,
2013-08-13 01:43:00,77.9,73.0,29.95,North,0,0.0,2.0,85,0.00,,---,0.00,VWS V14.01,2013-08-13 05:43:00,
2013-08-13 01:45:00,77.9,73.0,29.95,North,0,0.0,2.0,85,0.00,,---,0.00,VWS V14.01,2013-08-13 05:45:00,
2013-08-13 01:48:00,77.7,72.8,29.94,North,0,0.0,2.0,85,0.00,,---,0.00,VWS V14.01,2013-08-13 05:48:00,
2013-08-13 01:50:00,77.7,73.2,29.94,North,0,0.0,2.0,86,0.00,,---,0.00,VWS V14.01,2013-08-13 05:50:00,
2013-08-13 01:51:00,77.7,73.2,29.94,North,0,0.0,2.0,86,0.00,,---,0.00,VWS V14.01,2013-08-13 05:51:00,
2013-08-13 01:52:00,77.7,73.2,29.94,North,0,0.0,2.0,86,0.00,,---,0.00,VWS V14.01,2013-08-13 05:52:00,
2013-08-13 01:53:00,77.7,73.2,29.94,North,0,0.0,2.0,86,0.00,,---,0.00,VWS V14.01,2013-08-13 05:53:00,
2013-08-13 01:55:00,77.7,73.2,29.94,North,0,0.0,2.0,86,0.00,,---,0.00,VWS V14.01,2013-08-13 05:55:00,
2013-08-13 01:57:00,77.7,73.2,29.94,North,0,0.0,2.0,86,0.00,,---,0.00,VWS V14.01,2013-08-13 05:57:00,
2013-08-13 02:00:00,77.7,73.2,29.94,North,0,0.0,2.0,86,0.00,,---,0.00,VWS V14.01,2013-08-13 06:00:00,
2013-08-13 02:01:00,77.7,73.2,29.94,North,0,0.0,2.0,86,0.00,,---,0.00,VWS V14.01,2013-08-13 06:01:00,
2013-08-13 02:02:00,77.6,73.1,29.94,North,0,0.0,2.0,86,0.00,,---,0.00,VWS V14.01,2013-08-13 06:02:00,
2013-08-13 02:03:00,77.6,73.1,29.94,North,0,0.0,2.0,86,0.00,,---,0.00,VWS V14.01,2013-08-13 06:03:00,
2013-08-13 02:05:00,77.6,73.1,29.94,North,0,0.0,0.0,86,0.00,,---,0.00,VWS V14.01,2013-08-13 06:05:00,
2013-08-13 02:06:00,77.6,73.1,29.94,North,0,0.0,0.0,86,0.00,,---,0.00,VWS V14.01,2013-08-13 06:06:00,
2013-08-13 02:10:00,77.4,73.2,29.94,North,0,0.0,0.0,87,0.00,,---,0.00,VWS V14.01,2013-08-13 06:10:00,
2013-08-13 02:11:00,77.4,73.2,29.94,North,0,0.0,0.0,87,0.00,,---,0.00,VWS V14.01,2013-08-13 06:11:00,
2013-08-13 02:12:00,77.4,73.2,29.94,North,0,0.0,0.0,87,0.00,,---,0.00,VWS V14.01,2013-08-13 06:12:00,
2013-08-13 02:16:00,77.4,73.2,29.94,North,0,0.0,0.0,87,0.00,,---,0.00,VWS V14.01,2013-08-13 06:16:00,
2013-08-13 02:17:00,77.2,73.0,29.94,North,0,0.0,0.0,87,0.00,,---,0.00,VWS V14.01,2013-08-13 06:17:00,
2013-08-13 02:18:00,77.2,73.4,29.93,North,0,0.0,0.0,88,0.00,,---,0.00,VWS V14.01,2013-08-13 06:18:00,
2013-08-13 02:19:00,77.2,73.4,29.93,North,0,0.0,0.0,88,0.00,,---,0.00,VWS V14.01,2013-08-13 06:19:00,
2013-08-13 02:21:00,77.2,73.4,29.93,North,0,0.0,0.0,88,0.00,,---,0.00,VWS V14.01,2013-08-13 06:21:00,
2013-08-13 02:23:00,77.2,73.4,29.93,North,0,0.0,0.0,88,0.00,,---,0.00,VWS V14.01,2013-08-13 06:23:00,
2013-08-13 02:24:00,77.2,73.4,29.93,North,0,0.0,0.0,88,0.00,,---,0.00,VWS V14.01,2013-08-13 06:24:00,
2013-08-13 02:25:00,77.2,73.4,29.93,North,0,0.0,0.0,88,0.00,,---,0.00,VWS V14.01,2013-08-13 06:25:00,
2013-08-13 02:26:00,77.2,73.4,29.93,North,0,0.0,0.0,88,0.00,,---,0.00,VWS V14.01,2013-08-13 06:26:00,
2013-08-13 02:28:00,77.2,73.4,29.93,North,0,0.0,0.0,88,0.00,,---,0.00,VWS V14.01,2013-08-13 06:28:00,
2013-08-13 02:30:00,77.2,73.4,29.93,North,0,0.0,0.0,88,0.00,,---,0.00,VWS V14.01,2013-08-13 06:30:00,
2013-08-13 02:33:00,77.0,73.2,29.93,North,0,0.0,0.0,88,0.00,,---,0.00,VWS V14.01,2013-08-13 06:33:00,
2013-08-13 02:34:00,77.0,73.5,29.93,North,0,0.0,0.0,89,0.00,,---,0.00,VWS V14.01,2013-08-13 06:34:00,
2013-08-13 02:36:00,77.0,73.5,29.93,North,0,0.0,0.0,89,0.00,,---,0.00,VWS V14.01,2013-08-13 06:36:00,
2013-08-13 02:37:00,77.0,73.5,29.93,North,0,0.0,0.0,89,0.00,,---,0.00,VWS V14.01,2013-08-13 06:37:00,
2013-08-13 02:38:00,77.0,73.5,29.93,North,0,0.0,0.0,89,0.00,,---,0.00,VWS V14.01,2013-08-13 06:38:00,
2013-08-13 02:39:00,76.8,73.3,29.93,North,0,0.0,0.0,89,0.00,,---,0.00,VWS V14.01,2013-08-13 06:39:00,
2013-08-13 02:40:00,76.8,73.3,29.93,North,0,0.0,0.0,89,0.00,,---,0.00,VWS V14.01,2013-08-13 06:40:00,
2013-08-13 02:42:00,76.8,73.3,29.93,North,0,0.0,0.0,89,0.00,,---,0.00,VWS V14.01,2013-08-13 06:42:00,
2013-08-13 02:43:00,76.8,73.3,29.93,North,0,0.0,0.0,89,0.00,,---,0.00,VWS V14.01,2013-08-13 06:43:00,
2013-08-13 02:44:00,76.8,73.3,29.93,North,0,0.0,0.0,89,0.00,,---,0.00,VWS V14.01,2013-08-13 06:44:00,
2013-08-13 02:47:00,76.7,73.2,29.93,North,0,0.0,0.0,89,0.00,,---,0.00,VWS V14.01,2013-08-13 06:47:00,
2013-08-13 02:49:00,76.7,73.6,29.93,North,0,0.0,0.0,90,0.00,,---,0.00,VWS V14.01,2013-08-13 06:49:00,
2013-08-13 02:50:00,76.7,73.6,29.93,North,0,0.0,0.0,90,0.00,,---,0.00,VWS V14.01,2013-08-13 06:50:00,
2013-08-13 02:53:00,76.7,73.6,29.93,North,0,0.0,0.0,90,0.00,,---,0.00,VWS V14.01,2013-08-13 06:53:00,
2013-08-13 02:54:00,76.7,73.6,29.93,North,0,0.0,0.0,90,0.00,,---,0.00,VWS V14.01,2013-08-13 06:54:00,
2013-08-13 02:56:00,76.7,73.6,29.93,North,0,0.0,0.0,90,0.00,,---,0.00,VWS V14.01,2013-08-13 06:56:00,
2013-08-13 02:57:00,76.7,73.6,29.93,North,0,0.0,0.0,90,0.00,,---,0.00,VWS V14.01,2013-08-13 06:57:00,
2013-08-13 02:59:00,76.7,73.6,29.93,North,0,0.0,0.0,90,0.00,,---,0.00,VWS V14.01,2013-08-13 06:59:00,
2013-08-13 03:02:00,76.5,73.3,29.93,North,0,0.0,0.0,90,0.00,,---,0.00,VWS V14.01,2013-08-13 07:02:00,
2013-08-13 03:03:00,76.5,73.7,29.93,North,0,0.0,0.0,91,0.00,,---,0.00,VWS V14.01,2013-08-13 07:03:00,
2013-08-13 03:06:00,76.5,73.7,29.93,North,0,0.0,0.0,91,0.00,,---,0.00,VWS V14.01,2013-08-13 07:06:00,
2013-08-13 03:07:00,76.5,73.7,29.93,North,0,0.0,0.0,91,0.00,,---,0.00,VWS V14.01,2013-08-13 07:07:00,
2013-08-13 03:08:00,76.5,73.7,29.93,North,0,0.0,0.0,91,0.00,,---,0.00,VWS V14.01,2013-08-13 07:08:00,
2013-08-13 03:12:00,76.5,73.7,29.93,North,0,1.0,5.0,91,0.00,,---,0.00,VWS V14.01,2013-08-13 07:12:00,
2013-08-13 03:14:00,76.5,73.7,29.93,North,0,0.0,5.0,91,0.00,,---,0.00,VWS V14.01,2013-08-13 07:14:00,
2013-08-13 03:15:00,76.5,73.7,29.93,North,0,0.0,5.0,91,0.00,,---,0.00,VWS V14.01,2013-08-13 07:15:00,
2013-08-13 03:16:00,76.5,73.7,29.93,North,0,0.0,5.0,91,0.00,,---,0.00,VWS V14.01,2013-08-13 07:16:00,
2013-08-13 03:19:00,76.5,73.7,29.93,North,0,0.0,5.0,91,0.00,,---,0.00,VWS V14.01,2013-08-13 07:19:00,
2013-08-13 03:20:00,76.5,73.7,29.93,North,0,0.0,5.0,91,0.00,,---,0.00,VWS V14.01,2013-08-13 07:20:00,
2013-08-13 03:22:00,76.3,73.5,29.93,North,0,0.0,5.0,91,0.00,,---,0.00,VWS V14.01,2013-08-13 07:22:00,
2013-08-13 03:24:00,76.3,73.5,29.93,North,0,0.0,5.0,91,0.00,,---,0.00,VWS V14.01,2013-08-13 07:24:00,
2013-08-13 03:25:00,76.3,73.5,29.93,North,0,0.0,5.0,91,0.00,,---,0.00,VWS V14.01,2013-08-13 07:25:00,
2013-08-13 03:27:00,76.3,73.5,29.93,North,0,0.0,5.0,91,0.00,,---,0.00,VWS V14.01,2013-08-13 07:27:00,
2013-08-13 03:28:00,76.3,73.5,29.93,North,0,0.0,5.0,91,0.00,,---,0.00,VWS V14.01,2013-08-13 07:28:00,
2013-08-13 03:30:00,76.3,73.5,29.93,North,0,0.0,5.0,91,0.00,,---,0.00,VWS V14.01,2013-08-13 07:30:00,
2013-08-13 03:32:00,76.5,73.7,29.93,North,0,0.0,5.0,91,0.00,,---,0.00,VWS V14.01,2013-08-13 07:32:00,
2013-08-13 03:35:00,76.5,73.7,29.94,North,0,0.0,5.0,91,0.00,,---,0.00,VWS V14.01,2013-08-13 07:35:00,
2013-08-13 03:38:00,76.3,73.5,29.94,North,0,0.0,5.0,91,0.00,,---,0.00,VWS V14.01,2013-08-13 07:38:00,
2013-08-13 03:39:00,76.3,73.5,29.94,North,0,0.0,5.0,91,0.00,,---,0.00,VWS V14.01,2013-08-13 07:39:00,
2013-08-13 03:40:00,76.3,73.5,29.94,North,0,0.0,5.0,91,0.00,,---,0.00,VWS V14.01,2013-08-13 07:40:00,
2013-08-13 03:41:00,76.3,73.8,29.94,North,0,0.0,5.0,92,0.00,,---,0.00,VWS V14.01,2013-08-13 07:41:00,
2013-08-13 03:43:00,76.3,73.8,29.94,North,0,0.0,5.0,92,0.00,,---,0.00,VWS V14.01,2013-08-13 07:43:00,
2013-08-13 03:45:00,76.3,73.8,29.94,North,0,0.0,5.0,92,0.00,,---,0.00,VWS V14.01,2013-08-13 07:45:00,
2013-08-13 03:46:00,76.3,73.8,29.94,North,0,0.0,5.0,92,0.00,,---,0.00,VWS V14.01,2013-08-13 07:46:00,
2013-08-13 03:48:00,76.3,73.8,29.94,North,0,0.0,5.0,92,0.00,,---,0.00,VWS V14.01,2013-08-13 07:48:00,
2013-08-13 03:49:00,76.1,73.6,29.93,North,0,0.0,5.0,92,0.00,,---,0.00,VWS V14.01,2013-08-13 07:49:00,
2013-08-13 03:51:00,76.1,73.6,29.93,North,0,0.0,5.0,92,0.00,,---,0.00,VWS V14.01,2013-08-13 07:51:00,
2013-08-13 03:53:00,76.1,73.6,29.93,North,0,0.0,5.0,92,0.00,,---,0.00,VWS V14.01,2013-08-13 07:53:00,
2013-08-13 03:54:00,76.1,73.6,29.93,North,0,0.0,5.0,92,0.00,,---,0.00,VWS V14.01,2013-08-13 07:54:00,
2013-08-13 03:56:00,76.0,73.5,29.93,North,0,0.0,5.0,92,0.00,,---,0.00,VWS V14.01,2013-08-13 07:56:00,
2013-08-13 03:57:00,76.0,73.5,29.93,North,0,0.0,5.0,92,0.00,,---,0.00,VWS V14.01,2013-08-13 07:57:00,
2013-08-13 03:58:00,76.0,73.5,29.93,North,0,0.0,5.0,92,0.00,,---,0.00,VWS V14.01,2013-08-13 07:58:00,
2013-08-13 04:00:00,76.0,73.5,29.93,North,0,0.0,5.0,92,0.00,,---,0.00,VWS V14.01,2013-08-13 08:00:00,
2013-08-13 04:02:00,76.0,73.5,29.93,North,0,0.0,5.0,92,0.00,,---,0.00,VWS V14.01,2013-08-13 08:02:00,
2013-08-13 04:03:00,76.0,73.5,29.93,North,0,0.0,5.0,92,0.00,,---,0.00,VWS V14.01,2013-08-13 08:03:00,
2013-08-13 04:05:00,76.0,73.5,29.93,North,0,0.0,0.0,92,0.00,,---,0.00,VWS V14.01,2013-08-13 08:05:00,
2013-08-13 04:07:00,76.0,73.5,29.93,North,0,0.0,0.0,92,0.00,,---,0.00,VWS V14.01,2013-08-13 08:07:00,
2013-08-13 04:08:00,75.8,73.3,29.93,North,0,0.0,0.0,92,0.00,,---,0.00,VWS V14.01,2013-08-13 08:08:00,
2013-08-13 04:09:00,75.8,73.3,29.93,North,0,0.0,0.0,92,0.00,,---,0.00,VWS V14.01,2013-08-13 08:09:00,
2013-08-13 04:10:00,75.8,73.3,29.93,North,0,0.0,0.0,92,0.00,,---,0.00,VWS V14.01,2013-08-13 08:10:00,
2013-08-13 04:11:00,75.8,73.3,29.93,North,0,0.0,0.0,92,0.00,,---,0.00,VWS V14.01,2013-08-13 08:11:00,
2013-08-13 04:13:00,75.8,73.3,29.93,North,0,0.0,0.0,92,0.00,,---,0.00,VWS V14.01,2013-08-13 08:13:00,
2013-08-13 04:15:00,75.8,73.6,29.93,North,0,0.0,0.0,93,0.00,,---,0.00,VWS V14.01,2013-08-13 08:15:00,
2013-08-13 04:16:00,75.8,73.6,29.93,North,0,0.0,0.0,93,0.00,,---,0.00,VWS V14.01,2013-08-13 08:16:00,
2013-08-13 04:17:00,75.8,73.6,29.93,North,0,0.0,0.0,93,0.00,,---,0.00,VWS V14.01,2013-08-13 08:17:00,
2013-08-13 04:18:00,75.8,73.6,29.93,North,0,0.0,0.0,93,0.00,,---,0.00,VWS V14.01,2013-08-13 08:18:00,
2013-08-13 04:20:00,75.8,73.6,29.93,North,0,0.0,0.0,93,0.00,,---,0.00,VWS V14.01,2013-08-13 08:20:00,
2013-08-13 04:21:00,75.6,73.4,29.93,North,0,0.0,0.0,93,0.00,,---,0.00,VWS V14.01,2013-08-13 08:21:00,
2013-08-13 04:22:00,75.6,73.4,29.93,North,0,0.0,0.0,93,0.00,,---,0.00,VWS V14.01,2013-08-13 08:22:00,
2013-08-13 04:25:00,75.6,73.4,29.93,North,0,0.0,0.0,93,0.00,,---,0.00,VWS V14.01,2013-08-13 08:25:00,
2013-08-13 04:26:00,75.6,73.4,29.93,North,0,0.0,0.0,93,0.00,,---,0.00,VWS V14.01,2013-08-13 08:26:00,
2013-08-13 04:27:00,75.6,73.4,29.93,North,0,0.0,0.0,93,0.00,,---,0.00,VWS V14.01,2013-08-13 08:27:00,
2013-08-13 04:31:00,75.4,73.2,29.93,North,0,0.0,0.0,93,0.00,,---,0.00,VWS V14.01,2013-08-13 08:31:00,
2013-08-13 04:32:00,75.4,73.2,29.93,North,0,0.0,0.0,93,0.00,,---,0.00,VWS V14.01,2013-08-13 08:32:00,
2013-08-13 04:33:00,75.4,73.2,29.93,North,0,0.0,0.0,93,0.00,,---,0.00,VWS V14.01,2013-08-13 08:33:00,
2013-08-13 04:34:00,75.4,73.2,29.93,North,0,0.0,0.0,93,0.00,,---,0.00,VWS V14.01,2013-08-13 08:34:00,
2013-08-13 04:37:00,75.4,73.6,29.93,North,0,0.0,0.0,94,0.00,,---,0.00,VWS V14.01,2013-08-13 08:37:00,
2013-08-13 04:38:00,75.4,73.6,29.93,North,0,0.0,0.0,94,0.00,,---,0.00,VWS V14.01,2013-08-13 08:38:00,
2013-08-13 04:39:00,75.4,73.6,29.93,North,0,0.0,0.0,94,0.00,,---,0.00,VWS V14.01,2013-08-13 08:39:00,
2013-08-13 04:40:00,75.4,73.6,29.93,North,0,0.0,0.0,94,0.00,,---,0.00,VWS V14.01,2013-08-13 08:40:00,
2013-08-13 04:43:00,75.3,73.5,29.93,North,0,0.0,0.0,94,0.00,,---,0.00,VWS V14.01,2013-08-13 08:43:00,
2013-08-13 04:44:00,75.3,73.5,29.93,North,0,0.0,0.0,94,0.00,,---,0.00,VWS V14.01,2013-08-13 08:44:00,
2013-08-13 04:45:00,75.1,73.3,29.93,North,0,0.0,0.0,94,0.00,,---,0.00,VWS V14.01,2013-08-13 08:45:00,
2013-08-13 04:46:00,75.1,73.3,29.93,North,0,0.0,0.0,94,0.00,,---,0.00,VWS V14.01,2013-08-13 08:46:00,
2013-08-13 04:48:00,75.1,73.3,29.93,North,0,0.0,0.0,94,0.00,,---,0.00,VWS V14.01,2013-08-13 08:48:00,
2013-08-13 04:50:00,75.1,73.3,29.93,North,0,0.0,0.0,94,0.00,,---,0.00,VWS V14.01,2013-08-13 08:50:00,
2013-08-13 04:51:00,75.1,73.3,29.93,North,0,0.0,0.0,94,0.00,,---,0.00,VWS V14.01,2013-08-13 08:51:00,
2013-08-13 04:52:00,75.1,73.3,29.93,North,0,0.0,0.0,94,0.00,,---,0.00,VWS V14.01,2013-08-13 08:52:00,
2013-08-13 04:54:00,75.1,73.3,29.93,North,0,0.0,0.0,94,0.00,,---,0.00,VWS V14.01,2013-08-13 08:54:00,
2013-08-13 04:56:00,74.9,73.1,29.93,North,0,0.0,0.0,94,0.00,,---,0.00,VWS V14.01,2013-08-13 08:56:00,
2013-08-13 04:57:00,74.9,73.1,29.93,North,0,0.0,0.0,94,0.00,,---,0.00,VWS V14.01,2013-08-13 08:57:00,
2013-08-13 04:58:00,74.9,73.4,29.93,North,0,0.0,0.0,95,0.00,,---,0.00,VWS V14.01,2013-08-13 08:58:00,
2013-08-13 05:00:00,74.9,73.1,29.93,North,0,0.0,0.0,94,0.00,,---,0.00,VWS V14.01,2013-08-13 09:00:00,
2013-08-13 05:01:00,74.9,73.1,29.93,North,0,0.0,0.0,94,0.00,,---,0.00,VWS V14.01,2013-08-13 09:01:00,
2013-08-13 05:02:00,74.9,73.4,29.93,North,0,0.0,0.0,95,0.00,,---,0.00,VWS V14.01,2013-08-13 09:02:00,
2013-08-13 05:03:00,74.9,73.4,29.93,North,0,0.0,0.0,95,0.00,,---,0.00,VWS V14.01,2013-08-13 09:03:00,
2013-08-13 05:06:00,74.9,73.4,29.93,North,0,0.0,0.0,95,0.00,,---,0.00,VWS V14.01,2013-08-13 09:06:00,
2013-08-13 05:07:00,74.9,73.4,29.93,North,0,0.0,0.0,95,0.00,,---,0.00,VWS V14.01,2013-08-13 09:07:00,
2013-08-13 05:09:00,74.9,73.4,29.93,North,0,0.0,0.0,95,0.00,,---,0.00,VWS V14.01,2013-08-13 09:09:00,
2013-08-13 05:11:00,74.9,73.4,29.93,North,0,0.0,0.0,95,0.00,,---,0.00,VWS V14.01,2013-08-13 09:11:00,
2013-08-13 05:12:00,74.9,73.4,29.93,North,0,0.0,0.0,95,0.00,,---,0.00,VWS V14.01,2013-08-13 09:12:00,
2013-08-13 05:15:00,74.9,73.4,29.93,North,0,0.0,0.0,95,0.00,,---,0.00,VWS V14.01,2013-08-13 09:15:00,
2013-08-13 05:16:00,74.9,73.4,29.93,North,0,0.0,0.0,95,0.00,,---,0.00,VWS V14.01,2013-08-13 09:16:00,
2013-08-13 05:17:00,74.9,73.4,29.93,North,0,0.0,0.0,95,0.00,,---,0.00,VWS V14.01,2013-08-13 09:17:00,
2013-08-13 05:18:00,74.9,73.4,29.93,North,0,0.0,0.0,95,0.00,,---,0.00,VWS V14.01,2013-08-13 09:18:00,
2013-08-13 05:19:00,74.7,73.2,29.93,North,0,0.0,0.0,95,0.00,,---,0.00,VWS V14.01,2013-08-13 09:19:00,
2013-08-13 05:21:00,74.7,73.2,29.93,North,0,0.0,0.0,95,0.00,,---,0.00,VWS V14.01,2013-08-13 09:21:00,
2013-08-13 05:22:00,74.7,73.2,29.93,North,0,0.0,0.0,95,0.00,,---,0.00,VWS V14.01,2013-08-13 09:22:00,
2013-08-13 05:23:00,74.7,73.2,29.93,North,0,0.0,0.0,95,0.00,,---,0.00,VWS V14.01,2013-08-13 09:23:00,
2013-08-13 05:25:00,74.7,73.2,29.93,North,0,0.0,0.0,95,0.00,,---,0.00,VWS V14.01,2013-08-13 09:25:00,
2013-08-13 05:26:00,74.6,73.1,29.93,North,0,0.0,0.0,95,0.00,,---,0.00,VWS V14.01,2013-08-13 09:26:00,
2013-08-13 05:28:00,74.6,73.1,29.93,North,0,0.0,0.0,95,0.00,,---,0.00,VWS V14.01,2013-08-13 09:28:00,
2013-08-13 05:29:00,74.6,73.1,29.93,North,0,0.0,0.0,95,0.00,,---,0.00,VWS V14.01,2013-08-13 09:29:00,
2013-08-13 05:31:00,74.6,73.1,29.93,North,0,0.0,0.0,95,0.00,,---,0.00,VWS V14.01,2013-08-13 09:31:00,
2013-08-13 05:32:00,74.4,72.9,29.93,North,0,0.0,0.0,95,0.00,,---,0.00,VWS V14.01,2013-08-13 09:32:00,
2013-08-13 05:34:00,74.4,73.2,29.93,North,0,0.0,0.0,96,0.00,,---,0.00,VWS V14.01,2013-08-13 09:34:00,
2013-08-13 05:36:00,74.4,73.2,29.93,North,0,0.0,0.0,96,0.00,,---,0.00,VWS V14.01,2013-08-13 09:36:00,
2013-08-13 05:37:00,74.4,73.2,29.93,North,0,0.0,0.0,96,0.00,,---,0.00,VWS V14.01,2013-08-13 09:37:00,
2013-08-13 05:39:00,74.6,73.4,29.93,North,0,0.0,0.0,96,0.00,,---,0.00,VWS V14.01,2013-08-13 09:39:00,
2013-08-13 05:42:00,74.6,73.4,29.93,North,0,0.0,0.0,96,0.00,,---,0.00,VWS V14.01,2013-08-13 09:42:00,
2013-08-13 05:43:00,74.6,73.4,29.93,North,0,0.0,0.0,96,0.00,,---,0.00,VWS V14.01,2013-08-13 09:43:00,
2013-08-13 05:44:00,74.6,73.4,29.93,North,0,0.0,0.0,96,0.00,,---,0.00,VWS V14.01,2013-08-13 09:44:00,
2013-08-13 05:45:00,74.6,73.4,29.93,North,0,0.0,0.0,96,0.00,,---,0.00,VWS V14.01,2013-08-13 09:45:00,
2013-08-13 05:46:00,74.6,73.4,29.93,North,0,0.0,0.0,96,0.00,,---,0.00,VWS V14.01,2013-08-13 09:46:00,
2013-08-13 05:48:00,74.6,73.4,29.93,North,0,0.0,0.0,96,0.00,,---,0.00,VWS V14.01,2013-08-13 09:48:00,
2013-08-13 05:50:00,74.4,73.2,29.92,North,0,0.0,0.0,96,0.00,,---,0.00,VWS V14.01,2013-08-13 09:50:00,
2013-08-13 05:52:00,74.4,73.2,29.92,North,0,0.0,0.0,96,0.00,,---,0.00,VWS V14.01,2013-08-13 09:52:00,
2013-08-13 05:53:00,74.4,73.2,29.92,North,0,0.0,0.0,96,0.00,,---,0.00,VWS V14.01,2013-08-13 09:53:00,
2013-08-13 05:54:00,74.4,73.2,29.92,North,0,0.0,0.0,96,0.00,,---,0.00,VWS V14.01,2013-08-13 09:54:00,
2013-08-13 05:56:00,74.4,73.2,29.92,North,0,0.0,0.0,96,0.00,,---,0.00,VWS V14.01,2013-08-13 09:56:00,
2013-08-13 05:58:00,74.4,73.2,29.92,North,0,0.0,0.0,96,0.00,,---,0.00,VWS V14.01,2013-08-13 09:58:00,
2013-08-13 05:59:00,74.2,73.0,29.92,North,0,0.0,0.0,96,0.00,,---,0.00,VWS V14.01,2013-08-13 09:59:00,
2013-08-13 06:01:00,74.2,73.0,29.92,North,0,0.0,0.0,96,0.00,,---,0.00,VWS V14.01,2013-08-13 10:01:00,
2013-08-13 06:04:00,74.0,72.8,29.93,North,0,0.0,0.0,96,0.00,,---,0.00,VWS V14.01,2013-08-13 10:04:00,
2013-08-13 06:06:00,74.0,72.8,29.93,North,0,0.0,0.0,96,0.00,,---,0.00,VWS V14.01,2013-08-13 10:06:00,
2013-08-13 06:09:00,74.0,72.8,29.93,North,0,0.0,0.0,96,0.00,,---,0.00,VWS V14.01,2013-08-13 10:09:00,
2013-08-13 06:11:00,74.0,72.8,29.93,North,0,0.0,0.0,96,0.00,,---,0.00,VWS V14.01,2013-08-13 10:11:00,
2013-08-13 06:12:00,74.0,72.8,29.93,North,0,0.0,0.0,96,0.00,,---,0.00,VWS V14.01,2013-08-13 10:12:00,
2013-08-13 06:14:00,74.0,72.8,29.93,North,0,0.0,0.0,96,0.00,,---,0.00,VWS V14.01,2013-08-13 10:14:00,
2013-08-13 06:15:00,74.0,72.8,29.93,North,0,0.0,0.0,96,0.00,,---,0.00,VWS V14.01,2013-08-13 10:15:00,
2013-08-13 06:17:00,74.0,72.8,29.93,North,0,0.0,0.0,96,0.00,,---,0.00,VWS V14.01,2013-08-13 10:17:00,
2013-08-13 06:18:00,74.0,72.8,29.94,North,0,0.0,0.0,96,0.00,,---,0.00,VWS V14.01,2013-08-13 10:18:00,
2013-08-13 06:20:00,74.0,72.8,29.94,North,0,0.0,0.0,96,0.00,,---,0.00,VWS V14.01,2013-08-13 10:20:00,
2013-08-13 06:23:00,74.0,72.8,29.94,North,0,0.0,0.0,96,0.00,,---,0.00,VWS V14.01,2013-08-13 10:23:00,
2013-08-13 06:24:00,74.0,72.8,29.94,North,0,0.0,0.0,96,0.00,,---,0.00,VWS V14.01,2013-08-13 10:24:00,
2013-08-13 06:26:00,73.9,72.7,29.94,North,0,0.0,0.0,96,0.00,,---,0.00,VWS V14.01,2013-08-13 10:26:00,
2013-08-13 06:29:00,73.9,72.7,29.94,North,0,0.0,0.0,96,0.00,,---,0.00,VWS V14.01,2013-08-13 10:29:00,
2013-08-13 06:32:00,73.9,72.7,29.94,North,0,0.0,0.0,96,0.00,,---,0.00,VWS V14.01,2013-08-13 10:32:00,
2013-08-13 06:33:00,73.7,72.5,29.94,North,0,0.0,0.0,96,0.00,,---,0.00,VWS V14.01,2013-08-13 10:33:00,
2013-08-13 06:35:00,73.7,72.5,29.94,North,0,0.0,0.0,96,0.00,,---,0.00,VWS V14.01,2013-08-13 10:35:00,
2013-08-13 06:37:00,73.7,72.5,29.94,North,0,0.0,0.0,96,0.00,,---,0.00,VWS V14.01,2013-08-13 10:37:00,
2013-08-13 06:38:00,73.5,72.6,29.94,North,0,0.0,0.0,97,0.00,,---,0.00,VWS V14.01,2013-08-13 10:38:00,
2013-08-13 06:39:00,73.5,72.6,29.94,North,0,0.0,0.0,97,0.00,,---,0.00,VWS V14.01,2013-08-13 10:39:00,
2013-08-13 06:40:00,73.5,72.6,29.94,North,0,0.0,0.0,97,0.00,,---,0.00,VWS V14.01,2013-08-13 10:40:00,
2013-08-13 06:41:00,73.5,72.6,29.94,North,0,0.0,0.0,97,0.00,,---,0.00,VWS V14.01,2013-08-13 10:41:00,
2013-08-13 06:44:00,73.5,72.6,29.94,North,0,0.0,0.0,97,0.00,,---,0.00,VWS V14.01,2013-08-13 10:44:00,
2013-08-13 06:45:00,73.5,72.6,29.94,North,0,0.0,0.0,97,0.00,,---,0.00,VWS V14.01,2013-08-13 10:45:00,
2013-08-13 06:46:00,73.5,72.6,29.94,North,0,0.0,0.0,97,0.00,,---,0.00,VWS V14.01,2013-08-13 10:46:00,
2013-08-13 06:47:00,73.5,72.6,29.94,North,0,0.0,0.0,97,0.00,,---,0.00,VWS V14.01,2013-08-13 10:47:00,
2013-08-13 06:51:00,73.7,72.8,29.94,North,0,0.0,0.0,97,0.00,,---,0.00,VWS V14.01,2013-08-13 10:51:00,
2013-08-13 06:52:00,73.7,72.8,29.94,North,0,0.0,0.0,97,0.00,,---,0.00,VWS V14.01,2013-08-13 10:52:00,
2013-08-13 06:53:00,73.7,72.8,29.94,North,0,0.0,0.0,97,0.00,,---,0.00,VWS V14.01,2013-08-13 10:53:00,
2013-08-13 06:54:00,73.7,72.8,29.94,North,0,0.0,0.0,97,0.00,,---,0.00,VWS V14.01,2013-08-13 10:54:00,
2013-08-13 06:56:00,73.9,73.0,29.94,North,0,0.0,0.0,97,0.00,,---,0.00,VWS V14.01,2013-08-13 10:56:00,
2013-08-13 06:57:00,73.9,73.0,29.94,North,0,0.0,0.0,97,0.00,,---,0.00,VWS V14.01,2013-08-13 10:57:00,
2013-08-13 06:58:00,73.9,73.0,29.94,North,0,0.0,0.0,97,0.00,,---,0.00,VWS V14.01,2013-08-13 10:58:00,
2013-08-13 06:59:00,73.9,73.0,29.94,North,0,0.0,0.0,97,0.00,,---,0.00,VWS V14.01,2013-08-13 10:59:00,
2013-08-13 07:01:00,73.9,73.0,29.94,North,0,0.0,0.0,97,0.00,,---,0.00,VWS V14.01,2013-08-13 11:01:00,
2013-08-13 07:03:00,74.0,73.1,29.93,North,0,0.0,0.0,97,0.00,,---,0.00,VWS V14.01,2013-08-13 11:03:00,
2013-08-13 07:04:00,74.0,73.1,29.93,North,0,0.0,0.0,97,0.00,,---,0.00,VWS V14.01,2013-08-13 11:04:00,
2013-08-13 07:05:00,74.0,73.1,29.93,North,0,0.0,0.0,97,0.00,,---,0.00,VWS V14.01,2013-08-13 11:05:00,
2013-08-13 07:07:00,74.2,73.3,29.93,North,0,0.0,0.0,97,0.00,,---,0.00,VWS V14.01,2013-08-13 11:07:00,
2013-08-13 07:08:00,74.2,73.3,29.93,North,0,0.0,0.0,97,0.00,,---,0.00,VWS V14.01,2013-08-13 11:08:00,
2013-08-13 07:09:00,74.2,73.3,29.93,North,0,0.0,0.0,97,0.00,,---,0.00,VWS V14.01,2013-08-13 11:09:00,
2013-08-13 07:10:00,74.2,73.3,29.93,North,0,0.0,0.0,97,0.00,,---,0.00,VWS V14.01,2013-08-13 11:10:00,
2013-08-13 07:11:00,74.2,73.3,29.93,North,0,0.0,0.0,97,0.00,,---,0.00,VWS V14.01,2013-08-13 11:11:00,
2013-08-13 07:13:00,74.2,73.3,29.93,North,0,0.0,0.0,97,0.00,,---,0.00,VWS V14.01,2013-08-13 11:13:00,
2013-08-13 07:14:00,74.2,73.3,29.93,North,0,0.0,0.0,97,0.00,,---,0.00,VWS V14.01,2013-08-13 11:14:00,
2013-08-13 07:15:00,74.2,73.3,29.93,North,0,0.0,0.0,97,0.00,,---,0.00,VWS V14.01,2013-08-13 11:15:00,
2013-08-13 07:16:00,74.2,73.3,29.93,North,0,0.0,0.0,97,0.00,,---,0.00,VWS V14.01,2013-08-13 11:16:00,
2013-08-13 07:18:00,74.4,73.5,29.93,North,0,0.0,0.0,97,0.00,,---,0.00,VWS V14.01,2013-08-13 11:18:00,
2013-08-13 07:21:00,74.4,73.5,29.93,North,0,0.0,0.0,97,0.00,,---,0.00,VWS V14.01,2013-08-13 11:21:00,
2013-08-13 07:22:00,74.4,73.5,29.93,North,0,0.0,0.0,97,0.00,,---,0.00,VWS V14.01,2013-08-13 11:22:00,
2013-08-13 07:23:00,74.4,73.5,29.93,North,0,0.0,0.0,97,0.00,,---,0.00,VWS V14.01,2013-08-13 11:23:00,
2013-08-13 07:27:00,74.6,74.0,29.93,North,0,0.0,0.0,98,0.00,,---,0.00,VWS V14.01,2013-08-13 11:27:00,
2013-08-13 07:28:00,74.6,74.0,29.93,North,0,0.0,0.0,98,0.00,,---,0.00,VWS V14.01,2013-08-13 11:28:00,
2013-08-13 07:29:00,74.7,74.1,29.93,North,0,0.0,0.0,98,0.00,,---,0.00,VWS V14.01,2013-08-13 11:29:00,
2013-08-13 07:30:00,74.7,74.1,29.93,North,0,0.0,6.0,98,0.00,,---,0.00,VWS V14.01,2013-08-13 11:30:00,
2013-08-13 07:33:00,74.9,74.3,29.94,North,0,0.0,6.0,98,0.00,,---,0.00,VWS V14.01,2013-08-13 11:33:00,
2013-08-13 07:34:00,74.9,74.3,29.94,North,0,0.0,6.0,98,0.00,,---,0.00,VWS V14.01,2013-08-13 11:34:00,
2013-08-13 07:36:00,75.1,74.5,29.94,North,0,0.0,6.0,98,0.00,,---,0.00,VWS V14.01,2013-08-13 11:36:00,
2013-08-13 07:40:00,75.3,74.7,29.94,North,0,0.0,6.0,98,0.00,,---,0.00,VWS V14.01,2013-08-13 11:40:00,
2013-08-13 07:41:00,75.3,74.7,29.94,North,0,0.0,6.0,98,0.00,,---,0.00,VWS V14.01,2013-08-13 11:41:00,
2013-08-13 07:43:00,75.4,74.8,29.94,North,0,0.0,6.0,98,0.00,,---,0.00,VWS V14.01,2013-08-13 11:43:00,
2013-08-13 07:45:00,75.6,75.0,29.94,North,0,0.0,6.0,98,0.00,,---,0.00,VWS V14.01,2013-08-13 11:45:00,
2013-08-13 07:46:00,75.6,75.0,29.94,North,0,0.0,6.0,98,0.00,,---,0.00,VWS V14.01,2013-08-13 11:46:00,
2013-08-13 07:47:00,75.8,75.2,29.94,North,0,0.0,6.0,98,0.00,,---,0.00,VWS V14.01,2013-08-13 11:47:00,
2013-08-13 07:50:00,75.8,75.2,29.94,North,0,0.0,6.0,98,0.00,,---,0.00,VWS V14.01,2013-08-13 11:50:00,
2013-08-13 07:51:00,76.0,75.4,29.94,North,0,0.0,6.0,98,0.00,,---,0.00,VWS V14.01,2013-08-13 11:51:00,
2013-08-13 07:52:00,76.0,75.4,29.94,North,0,0.0,6.0,98,0.00,,---,0.00,VWS V14.01,2013-08-13 11:52:00,
2013-08-13 07:53:00,76.1,75.5,29.94,North,0,0.0,6.0,98,0.00,,---,0.00,VWS V14.01,2013-08-13 11:53:00,
2013-08-13 07:55:00,76.3,75.4,29.94,North,0,0.0,6.0,97,0.00,,---,0.00,VWS V14.01,2013-08-13 11:55:00,
2013-08-13 07:56:00,76.5,75.6,29.94,North,0,0.0,6.0,97,0.00,,---,0.00,VWS V14.01,2013-08-13 11:56:00,
2013-08-13 07:57:00,76.5,75.6,29.94,North,0,0.0,6.0,97,0.00,,---,0.00,VWS V14.01,2013-08-13 11:57:00,
2013-08-13 07:58:00,76.5,75.6,29.94,North,0,0.0,6.0,97,0.00,,---,0.00,VWS V14.01,2013-08-13 11:58:00,
2013-08-13 08:01:00,76.8,75.9,29.94,North,0,0.0,6.0,97,0.00,,---,0.00,VWS V14.01,2013-08-13 12:01:00,
2013-08-13 08:02:00,76.8,75.9,29.94,North,0,0.0,6.0,97,0.00,,---,0.00,VWS V14.01,2013-08-13 12:02:00,
2013-08-13 08:03:00,77.0,75.8,29.94,North,0,0.0,6.0,96,0.00,,---,0.00,VWS V14.01,2013-08-13 12:03:00,
2013-08-13 08:05:00,77.0,75.8,29.94,North,0,0.0,0.0,96,0.00,,---,0.00,VWS V14.01,2013-08-13 12:05:00,
2013-08-13 08:07:00,77.2,75.7,29.94,North,0,0.0,0.0,95,0.00,,---,0.00,VWS V14.01,2013-08-13 12:07:00,
2013-08-13 08:08:00,77.2,75.7,29.94,North,0,0.0,0.0,95,0.00,,---,0.00,VWS V14.01,2013-08-13 12:08:00,
2013-08-13 08:09:00,77.2,75.7,29.94,North,0,0.0,0.0,95,0.00,,---,0.00,VWS V14.01,2013-08-13 12:09:00,
2013-08-13 08:10:00,77.4,75.9,29.94,North,0,0.0,0.0,95,0.00,,---,0.00,VWS V14.01,2013-08-13 12:10:00,
2013-08-13 08:13:00,77.7,76.2,29.94,North,0,0.0,0.0,95,0.00,,---,0.00,VWS V14.01,2013-08-13 12:13:00,
2013-08-13 08:14:00,77.9,76.0,29.94,North,0,0.0,0.0,94,0.00,,---,0.00,VWS V14.01,2013-08-13 12:14:00,
2013-08-13 08:15:00,77.9,75.7,29.94,North,0,0.0,0.0,93,0.00,,---,0.00,VWS V14.01,2013-08-13 12:15:00,
2013-08-13 08:16:00,77.9,75.7,29.94,North,0,0.0,0.0,93,0.00,,---,0.00,VWS V14.01,2013-08-13 12:16:00,
2013-08-13 08:18:00,78.3,75.8,29.94,North,0,0.0,0.0,92,0.00,,---,0.00,VWS V14.01,2013-08-13 12:18:00,
2013-08-13 08:19:00,78.5,75.7,29.95,North,0,0.0,0.0,91,0.00,,---,0.00,VWS V14.01,2013-08-13 12:19:00,
2013-08-13 08:20:00,78.5,75.7,29.95,North,0,0.0,0.0,91,0.00,,---,0.00,VWS V14.01,2013-08-13 12:20:00,
2013-08-13 08:21:00,78.6,75.8,29.95,North,0,0.0,0.0,91,0.00,,---,0.00,VWS V14.01,2013-08-13 12:21:00,
2013-08-13 08:22:00,78.6,75.4,29.95,North,0,0.0,0.0,90,0.00,,---,0.00,VWS V14.01,2013-08-13 12:22:00,
2013-08-13 08:23:00,78.8,75.6,29.95,North,0,0.0,0.0,90,0.00,,---,0.00,VWS V14.01,2013-08-13 12:23:00,
2013-08-13 08:26:00,79.0,75.2,29.95,North,0,1.0,5.0,88,0.00,,---,0.00,VWS V14.01,2013-08-13 12:26:00,
2013-08-13 08:27:00,79.2,75.3,29.95,North,0,2.0,5.0,88,0.00,,---,0.00,VWS V14.01,2013-08-13 12:27:00,
2013-08-13 08:28:00,79.2,75.0,29.95,North,0,0.0,5.0,87,0.00,,---,0.00,VWS V14.01,2013-08-13 12:28:00,
2013-08-13 08:29:00,79.4,75.2,29.95,North,0,0.0,5.0,87,0.00,,---,0.00,VWS V14.01,2013-08-13 12:29:00,
2013-08-13 08:31:00,79.6,75.1,29.95,North,0,0.0,5.0,86,0.00,,---,0.00,VWS V14.01,2013-08-13 12:31:00,
2013-08-13 08:34:00,79.9,75.0,29.95,North,0,0.0,5.0,85,0.00,,---,0.00,VWS V14.01,2013-08-13 12:34:00,
2013-08-13 08:35:00,80.1,75.2,29.95,North,0,0.0,5.0,85,0.00,,---,0.00,VWS V14.01,2013-08-13 12:35:00,
2013-08-13 08:36:00,80.3,75.4,29.95,North,0,0.0,6.0,85,0.00,,---,0.00,VWS V14.01,2013-08-13 12:36:00,
2013-08-13 08:39:00,80.5,74.9,29.95,North,0,0.0,6.0,83,0.00,,---,0.00,VWS V14.01,2013-08-13 12:39:00,
2013-08-13 08:40:00,80.7,75.1,29.95,North,0,0.0,6.0,83,0.00,,---,0.00,VWS V14.01,2013-08-13 12:40:00,
2013-08-13 08:41:00,80.9,75.3,29.95,North,0,6.0,6.0,83,0.00,,---,0.00,VWS V14.01,2013-08-13 12:41:00,
2013-08-13 08:44:00,81.1,75.1,29.95,North,0,0.0,7.0,82,0.00,,---,0.00,VWS V14.01,2013-08-13 12:44:00,
2013-08-13 08:46:00,81.2,74.8,29.95,North,0,1.0,7.0,81,0.00,,---,0.00,VWS V14.01,2013-08-13 12:46:00,
2013-08-13 08:47:00,81.2,74.8,29.95,North,0,0.0,7.0,81,0.00,,---,0.00,VWS V14.01,2013-08-13 12:47:00,
2013-08-13 08:49:00,81.4,74.6,29.94,North,0,4.0,7.0,80,0.00,,---,0.00,VWS V14.01,2013-08-13 12:49:00,
2013-08-13 08:50:00,81.4,74.6,29.94,North,0,0.0,7.0,80,0.00,,---,0.00,VWS V14.01,2013-08-13 12:50:00,
2013-08-13 08:51:00,81.6,74.8,29.94,North,0,0.0,7.0,80,0.00,,---,0.00,VWS V14.01,2013-08-13 12:51:00,
2013-08-13 08:52:00,81.6,74.8,29.94,North,0,0.0,7.0,80,0.00,,---,0.00,VWS V14.01,2013-08-13 12:52:00,
2013-08-13 08:53:00,81.8,75.4,29.94,North,0,0.0,7.0,81,0.00,,---,0.00,VWS V14.01,2013-08-13 12:53:00,
2013-08-13 08:56:00,82.2,75.4,29.94,North,0,0.0,7.0,80,0.00,,---,0.00,VWS V14.01,2013-08-13 12:56:00,
2013-08-13 08:57:00,82.4,75.6,29.94,North,0,0.0,7.0,80,0.00,,---,0.00,VWS V14.01,2013-08-13 12:57:00,
2013-08-13 08:58:00,82.4,75.6,29.94,North,0,0.0,7.0,80,0.00,,---,0.00,VWS V14.01,2013-08-13 12:58:00,
2013-08-13 09:01:00,82.8,75.6,29.94,North,0,0.0,7.0,79,0.00,,---,0.00,VWS V14.01,2013-08-13 13:01:00,
2013-08-13 09:02:00,83.0,75.8,29.94,North,0,8.0,8.0,79,0.00,,---,0.00,VWS V14.01,2013-08-13 13:02:00,
2013-08-13 09:03:00,83.0,75.4,29.94,North,0,0.0,8.0,78,0.00,,---,0.00,VWS V14.01,2013-08-13 13:03:00,
2013-08-13 09:06:00,83.4,75.4,29.95,North,0,0.0,6.0,77,0.00,,---,0.00,VWS V14.01,2013-08-13 13:06:00,
2013-08-13 09:08:00,83.6,76.0,29.95,North,0,6.0,6.0,78,0.00,,---,0.00,VWS V14.01,2013-08-13 13:08:00,
2013-08-13 09:09:00,83.6,75.6,29.95,North,0,6.0,7.0,77,0.00,,---,0.00,VWS V14.01,2013-08-13 13:09:00,
2013-08-13 09:10:00,83.8,75.8,29.95,North,0,0.0,7.0,77,0.00,,---,0.00,VWS V14.01,2013-08-13 13:10:00,
2013-08-13 09:12:00,84.0,75.6,29.95,North,0,0.0,7.0,76,0.00,,---,0.00,VWS V14.01,2013-08-13 13:12:00,
2013-08-13 09:13:00,84.1,75.7,29.95,North,0,0.0,7.0,76,0.00,,---,0.00,VWS V14.01,2013-08-13 13:13:00,
2013-08-13 09:14:00,84.1,75.7,29.95,North,0,0.0,7.0,76,0.00,,---,0.00,VWS V14.01,2013-08-13 13:14:00,
2013-08-13 09:16:00,84.5,75.7,29.95,North,0,0.0,7.0,75,0.00,,---,0.00,VWS V14.01,2013-08-13 13:16:00,
2013-08-13 09:17:00,84.5,75.7,29.95,North,0,0.0,7.0,75,0.00,,---,0.00,VWS V14.01,2013-08-13 13:17:00,
2013-08-13 09:19:00,84.7,75.5,29.95,North,0,0.0,7.0,74,0.00,,---,0.00,VWS V14.01,2013-08-13 13:19:00,
2013-08-13 09:23:00,84.9,75.3,29.95,North,0,0.0,7.0,73,0.00,,---,0.00,VWS V14.01,2013-08-13 13:23:00,
2013-08-13 09:25:00,85.1,75.5,29.95,North,0,4.0,7.0,73,0.00,,---,0.00,VWS V14.01,2013-08-13 13:25:00,
2013-08-13 09:26:00,85.1,75.1,29.95,North,0,0.0,7.0,72,0.00,,---,0.00,VWS V14.01,2013-08-13 13:26:00,
2013-08-13 09:28:00,85.3,75.2,29.95,North,0,5.0,7.0,72,0.00,,---,0.00,VWS V14.01,2013-08-13 13:28:00,
2013-08-13 09:30:00,85.3,75.2,29.95,North,0,0.0,7.0,72,0.00,,---,0.00,VWS V14.01,2013-08-13 13:30:00,
2013-08-13 09:31:00,85.5,75.4,29.95,North,0,2.0,7.0,72,0.00,,---,0.00,VWS V14.01,2013-08-13 13:31:00,
2013-08-13 09:32:00,85.5,75.0,29.95,North,0,0.0,7.0,71,0.00,,---,0.00,VWS V14.01,2013-08-13 13:32:00,
2013-08-13 09:34:00,85.5,75.0,29.95,North,0,0.0,7.0,71,0.00,,---,0.00,VWS V14.01,2013-08-13 13:34:00,
2013-08-13 09:35:00,85.7,75.2,29.95,North,0,6.0,7.0,71,0.00,,---,0.00,VWS V14.01,2013-08-13 13:35:00,
2013-08-13 09:36:00,85.7,75.2,29.95,North,0,5.0,7.0,71,0.00,,---,0.00,VWS V14.01,2013-08-13 13:36:00,
2013-08-13 09:38:00,85.7,75.2,29.95,North,0,0.0,7.0,71,0.00,,---,0.00,VWS V14.01,2013-08-13 13:38:00,
2013-08-13 09:39:00,85.7,75.2,29.95,North,0,0.0,7.0,71,0.00,,---,0.00,VWS V14.01,2013-08-13 13:39:00,
2013-08-13 09:42:00,86.1,76.0,29.95,North,0,0.0,7.0,72,0.00,,---,0.00,VWS V14.01,2013-08-13 13:42:00,
2013-08-13 09:44:00,86.1,75.2,29.95,North,0,0.0,7.0,70,0.00,,---,0.00,VWS V14.01,2013-08-13 13:44:00,
2013-08-13 09:45:00,86.3,75.4,29.95,North,0,0.0,7.0,70,0.00,,---,0.00,VWS V14.01,2013-08-13 13:45:00,
2013-08-13 09:46:00,86.3,74.9,29.95,North,0,0.0,7.0,69,0.00,,---,0.00,VWS V14.01,2013-08-13 13:46:00,
2013-08-13 09:47:00,86.5,75.1,29.95,North,0,0.0,7.0,69,0.00,,---,0.00,VWS V14.01,2013-08-13 13:47:00,
2013-08-13 09:50:00,86.7,74.4,29.94,North,0,0.0,7.0,67,0.00,,---,0.00,VWS V14.01,2013-08-13 13:50:00,
2013-08-13 09:52:00,86.7,74.9,29.94,North,0,2.0,7.0,68,0.00,,---,0.00,VWS V14.01,2013-08-13 13:52:00,
2013-08-13 09:53:00,86.7,74.9,29.94,North,0,0.0,7.0,68,0.00,,---,0.00,VWS V14.01,2013-08-13 13:53:00,
2013-08-13 09:54:00,86.7,74.4,29.94,North,0,0.0,7.0,67,0.00,,---,0.00,VWS V14.01,2013-08-13 13:54:00,
2013-08-13 09:55:00,86.7,74.4,29.94,North,0,0.0,7.0,67,0.00,,---,0.00,VWS V14.01,2013-08-13 13:55:00,
2013-08-13 09:58:00,87.0,74.7,29.94,North,0,0.0,7.0,67,0.00,,---,0.00,VWS V14.01,2013-08-13 13:58:00,
2013-08-13 09:59:00,87.2,74.9,29.94,North,0,0.0,7.0,67,0.00,,---,0.00,VWS V14.01,2013-08-13 13:59:00,
2013-08-13 10:00:00,87.2,74.9,29.94,North,0,0.0,7.0,67,0.00,,---,0.00,VWS V14.01,2013-08-13 14:00:00,
2013-08-13 10:02:00,87.2,74.5,29.94,North,0,0.0,7.0,66,0.00,,---,0.00,VWS V14.01,2013-08-13 14:02:00,
2013-08-13 10:04:00,87.4,75.1,29.95,North,0,0.0,7.0,67,0.00,,---,0.00,VWS V14.01,2013-08-13 14:04:00,
2013-08-13 10:05:00,87.6,74.8,29.95,North,0,0.0,0.0,66,0.00,,---,0.00,VWS V14.01,2013-08-13 14:05:00,
2013-08-13 10:08:00,87.6,74.8,29.95,North,0,0.0,4.0,66,0.00,,---,0.00,VWS V14.01,2013-08-13 14:08:00,
2013-08-13 10:10:00,87.6,75.3,29.95,North,0,0.0,4.0,67,0.00,,---,0.00,VWS V14.01,2013-08-13 14:10:00,
2013-08-13 10:11:00,87.6,75.3,29.95,North,0,0.0,4.0,67,0.00,,---,0.00,VWS V14.01,2013-08-13 14:11:00,
2013-08-13 10:13:00,87.6,75.7,29.95,North,0,0.0,4.0,68,0.00,,---,0.00,VWS V14.01,2013-08-13 14:13:00,
2013-08-13 10:16:00,88.0,75.7,29.95,North,0,0.0,4.0,67,0.00,,---,0.00,VWS V14.01,2013-08-13 14:16:00,
2013-08-13 10:17:00,88.0,75.7,29.95,North,0,0.0,4.0,67,0.00,,---,0.00,VWS V14.01,2013-08-13 14:17:00,
2013-08-13 10:18:00,88.0,74.3,29.94,North,0,0.0,4.0,64,0.00,,---,0.00,VWS V14.01,2013-08-13 14:18:00,
2013-08-13 10:19:00,88.2,74.5,29.94,North,0,0.0,4.0,64,0.00,,---,0.00,VWS V14.01,2013-08-13 14:19:00,
2013-08-13 10:21:00,88.2,74.5,29.94,North,0,0.0,4.0,64,0.00,,---,0.00,VWS V14.01,2013-08-13 14:21:00,
2013-08-13 10:23:00,88.4,74.2,29.94,North,0,0.0,4.0,63,0.00,,---,0.00,VWS V14.01,2013-08-13 14:23:00,
2013-08-13 10:24:00,88.4,74.2,29.94,North,0,0.0,4.0,63,0.00,,---,0.00,VWS V14.01,2013-08-13 14:24:00,
2013-08-13 10:25:00,88.6,74.4,29.94,North,0,0.0,4.0,63,0.00,,---,0.00,VWS V14.01,2013-08-13 14:25:00,
2013-08-13 10:26:00,88.6,74.4,29.94,North,0,0.0,4.0,63,0.00,,---,0.00,VWS V14.01,2013-08-13 14:26:00,
2013-08-13 10:27:00,88.6,74.4,29.94,North,0,0.0,4.0,63,0.00,,---,0.00,VWS V14.01,2013-08-13 14:27:00,
2013-08-13 10:29:00,88.6,74.9,29.94,North,0,0.0,4.0,64,0.00,,---,0.00,VWS V14.01,2013-08-13 14:29:00,
2013-08-13 10:31:00,88.6,74.4,29.94,North,0,0.0,4.0,63,0.00,,---,0.00,VWS V14.01,2013-08-13 14:31:00,
2013-08-13 10:32:00,88.8,74.6,29.94,North,0,0.0,4.0,63,0.00,,---,0.00,VWS V14.01,2013-08-13 14:32:00,
2013-08-13 10:33:00,88.8,74.6,29.94,North,0,0.0,4.0,63,0.00,,---,0.00,VWS V14.01,2013-08-13 14:33:00,
2013-08-13 10:35:00,88.6,73.9,29.95,North,0,0.0,4.0,62,0.00,,---,0.00,VWS V14.01,2013-08-13 14:35:00,
2013-08-13 10:37:00,88.8,73.6,29.95,North,0,0.0,4.0,61,0.00,,---,0.00,VWS V14.01,2013-08-13 14:37:00,
2013-08-13 10:38:00,88.8,74.1,29.95,North,0,0.0,4.0,62,0.00,,---,0.00,VWS V14.01,2013-08-13 14:38:00,
2013-08-13 10:40:00,89.0,74.3,29.95,North,0,0.0,4.0,62,0.00,,---,0.00,VWS V14.01,2013-08-13 14:40:00,
2013-08-13 10:41:00,89.3,74.1,29.95,North,0,0.0,4.0,61,0.00,,---,0.00,VWS V14.01,2013-08-13 14:41:00,
2013-08-13 10:43:00,89.3,74.1,29.95,North,0,0.0,4.0,61,0.00,,---,0.00,VWS V14.01,2013-08-13 14:43:00,
2013-08-13 10:46:00,88.8,73.6,29.95,North,0,0.0,4.0,61,0.00,,---,0.00,VWS V14.01,2013-08-13 14:46:00,
2013-08-13 10:48:00,88.8,73.6,29.95,North,0,0.0,4.0,61,0.00,,---,0.00,VWS V14.01,2013-08-13 14:48:00,
2013-08-13 10:49:00,89.0,74.8,29.95,North,0,0.0,4.0,63,0.00,,---,0.00,VWS V14.01,2013-08-13 14:49:00,
2013-08-13 10:50:00,89.0,74.8,29.95,North,0,0.0,4.0,63,0.00,,---,0.00,VWS V14.01,2013-08-13 14:50:00,
2013-08-13 10:52:00,89.3,74.6,29.95,North,0,0.0,4.0,62,0.00,,---,0.00,VWS V14.01,2013-08-13 14:52:00,
2013-08-13 10:53:00,89.5,74.3,29.95,North,0,0.0,4.0,61,0.00,,---,0.00,VWS V14.01,2013-08-13 14:53:00,
2013-08-13 10:55:00,89.9,73.7,29.95,North,0,0.0,4.0,59,0.00,,---,0.00,VWS V14.01,2013-08-13 14:55:00,
2013-08-13 10:57:00,90.1,73.8,29.95,North,0,0.0,4.0,59,0.00,,---,0.00,VWS V14.01,2013-08-13 14:57:00,
2013-08-13 10:58:00,90.3,74.0,29.95,North,0,0.0,4.0,59,0.00,,---,0.00,VWS V14.01,2013-08-13 14:58:00,
2013-08-13 10:59:00,90.3,73.5,29.95,North,0,0.0,4.0,58,0.00,,---,0.00,VWS V14.01,2013-08-13 14:59:00,
2013-08-13 11:04:00,90.5,72.7,29.95,North,0,0.0,4.0,56,0.00,,---,0.00,VWS V14.01,2013-08-13 15:04:00,
2013-08-13 11:08:00,91.0,73.1,29.95,North,0,0.0,0.0,56,0.00,,---,0.00,VWS V14.01,2013-08-13 15:08:00,
2013-08-13 11:10:00,91.0,73.1,29.95,North,0,0.0,0.0,56,0.00,,---,0.00,VWS V14.01,2013-08-13 15:10:00,
2013-08-13 11:11:00,91.0,73.1,29.95,North,0,0.0,0.0,56,0.00,,---,0.00,VWS V14.01,2013-08-13 15:11:00,
2013-08-13 11:15:00,91.0,72.6,29.95,North,0,0.0,0.0,55,0.00,,---,0.00,VWS V14.01,2013-08-13 15:15:00,
2013-08-13 11:16:00,90.7,73.4,29.95,North,0,0.0,0.0,57,0.00,,---,0.00,VWS V14.01,2013-08-13 15:16:00,
2013-08-13 11:17:00,90.7,73.4,29.95,North,0,0.0,0.0,57,0.00,,---,0.00,VWS V14.01,2013-08-13 15:17:00,
2013-08-13 11:18:00,90.7,73.4,29.95,North,0,0.0,0.0,57,0.00,,---,0.00,VWS V14.01,2013-08-13 15:18:00,
2013-08-13 11:20:00,90.7,73.9,29.95,North,0,0.0,0.0,58,0.00,,---,0.00,VWS V14.01,2013-08-13 15:20:00,
2013-08-13 11:22:00,90.7,73.4,29.95,North,0,0.0,0.0,57,0.00,,---,0.00,VWS V14.01,2013-08-13 15:22:00,
2013-08-13 11:23:00,90.7,72.9,29.95,North,0,0.0,0.0,56,0.00,,---,0.00,VWS V14.01,2013-08-13 15:23:00,
2013-08-13 11:24:00,91.0,73.1,29.95,North,0,0.0,0.0,56,0.00,,---,0.00,VWS V14.01,2013-08-13 15:24:00,
2013-08-13 11:25:00,91.0,73.1,29.95,North,0,0.0,0.0,56,0.00,,---,0.00,VWS V14.01,2013-08-13 15:25:00,
2013-08-13 11:27:00,91.2,73.3,29.95,North,0,0.0,0.0,56,0.00,,---,0.00,VWS V14.01,2013-08-13 15:27:00,
2013-08-13 11:28:00,91.2,73.3,29.95,North,0,0.0,0.0,56,0.00,,---,0.00,VWS V14.01,2013-08-13 15:28:00,
2013-08-13 11:29:00,91.2,73.8,29.95,North,0,0.0,0.0,57,0.00,,---,0.00,VWS V14.01,2013-08-13 15:29:00,
2013-08-13 11:31:00,91.2,71.7,29.95,North,0,0.0,0.0,53,0.00,,---,0.00,VWS V14.01,2013-08-13 15:31:00,
2013-08-13 11:33:00,91.0,72.1,29.95,North,0,0.0,0.0,54,0.00,,---,0.00,VWS V14.01,2013-08-13 15:33:00,
2013-08-13 11:34:00,91.0,72.6,29.95,North,0,0.0,0.0,55,0.00,,---,0.00,VWS V14.01,2013-08-13 15:34:00,
2013-08-13 11:35:00,91.0,72.6,29.95,North,0,0.0,0.0,55,0.00,,---,0.00,VWS V14.01,2013-08-13 15:35:00,
2013-08-13 11:36:00,91.0,72.6,29.95,North,0,0.0,0.0,55,0.00,,---,0.00,VWS V14.01,2013-08-13 15:36:00,
2013-08-13 11:37:00,90.7,71.8,29.95,North,0,0.0,5.0,54,0.00,,---,0.00,VWS V14.01,2013-08-13 15:37:00,
2013-08-13 11:38:00,90.7,71.8,29.95,North,0,5.0,6.0,54,0.00,,---,0.00,VWS V14.01,2013-08-13 15:38:00,
2013-08-13 11:41:00,90.5,72.1,29.95,North,0,0.0,6.0,55,0.00,,---,0.00,VWS V14.01,2013-08-13 15:41:00,
2013-08-13 11:42:00,90.3,71.9,29.95,North,0,0.0,6.0,55,0.00,,---,0.00,VWS V14.01,2013-08-13 15:42:00,
2013-08-13 11:43:00,90.1,71.8,29.95,North,0,0.0,6.0,55,0.00,,---,0.00,VWS V14.01,2013-08-13 15:43:00,
2013-08-13 11:44:00,90.1,72.3,29.95,North,0,5.0,6.0,56,0.00,,---,0.00,VWS V14.01,2013-08-13 15:44:00,
2013-08-13 11:47:00,90.5,72.7,29.95,North,0,0.0,6.0,56,0.00,,---,0.00,VWS V14.01,2013-08-13 15:47:00,
2013-08-13 11:48:00,90.7,72.9,29.95,North,0,0.0,6.0,56,0.00,,---,0.00,VWS V14.01,2013-08-13 15:48:00,
2013-08-13 11:49:00,90.7,71.8,29.95,North,0,5.0,7.0,54,0.00,,---,0.00,VWS V14.01,2013-08-13 15:49:00,
2013-08-13 11:53:00,90.1,73.3,29.95,North,0,0.0,7.0,58,0.00,,---,0.00,VWS V14.01,2013-08-13 15:53:00,
2013-08-13 11:55:00,90.1,72.3,29.95,North,0,0.0,7.0,56,0.00,,---,0.00,VWS V14.01,2013-08-13 15:55:00,
2013-08-13 11:56:00,90.3,71.4,29.95,North,0,1.0,7.0,54,0.00,,---,0.00,VWS V14.01,2013-08-13 15:56:00,
2013-08-13 11:57:00,90.3,71.4,29.95,North,0,0.0,7.0,54,0.00,,---,0.00,VWS V14.01,2013-08-13 15:57:00,
2013-08-13 11:58:00,90.3,72.5,29.95,North,0,4.0,7.0,56,0.00,,---,0.00,VWS V14.01,2013-08-13 15:58:00,
2013-08-13 11:59:00,90.5,73.2,29.95,North,0,0.0,7.0,57,0.00,,---,0.00,VWS V14.01,2013-08-13 15:59:00,
2013-08-13 12:00:00,90.5,72.1,29.95,North,0,0.0,7.0,55,0.00,,---,0.00,VWS V14.01,2013-08-13 16:00:00,
2013-08-13 12:02:00,90.7,71.8,29.95,North,0,4.0,7.0,54,0.00,,---,0.00,VWS V14.01,2013-08-13 16:02:00,
2013-08-13 12:03:00,90.5,71.6,29.95,North,0,0.0,7.0,54,0.00,,---,0.00,VWS V14.01,2013-08-13 16:03:00,
2013-08-13 12:05:00,90.3,72.5,29.94,North,0,0.0,0.0,56,0.00,,---,0.00,VWS V14.01,2013-08-13 16:05:00,
2013-08-13 12:06:00,90.3,73.0,29.94,North,0,5.0,6.0,57,0.00,,---,0.00,VWS V14.01,2013-08-13 16:06:00,
2013-08-13 12:08:00,90.3,73.0,29.94,North,0,0.0,6.0,57,0.00,,---,0.00,VWS V14.01,2013-08-13 16:08:00,
2013-08-13 12:10:00,90.1,72.8,29.94,North,0,0.0,6.0,57,0.00,,---,0.00,VWS V14.01,2013-08-13 16:10:00,
2013-08-13 12:11:00,90.1,72.8,29.94,North,0,0.0,6.0,57,0.00,,---,0.00,VWS V14.01,2013-08-13 16:11:00,
2013-08-13 12:13:00,90.1,72.8,29.94,North,0,0.0,6.0,57,0.00,,---,0.00,VWS V14.01,2013-08-13 16:13:00,
2013-08-13 12:15:00,90.1,72.8,29.94,North,0,0.0,6.0,57,0.00,,---,0.00,VWS V14.01,2013-08-13 16:15:00,
2013-08-13 12:16:00,90.5,73.7,29.94,North,0,2.0,6.0,58,0.00,,---,0.00,VWS V14.01,2013-08-13 16:16:00,
2013-08-13 12:17:00,90.5,73.7,29.94,North,0,5.0,6.0,58,0.00,,---,0.00,VWS V14.01,2013-08-13 16:17:00,
2013-08-13 12:20:00,91.0,72.6,29.94,North,0,0.0,6.0,55,0.00,,---,0.00,VWS V14.01,2013-08-13 16:20:00,
2013-08-13 12:21:00,91.2,72.2,29.94,North,0,0.0,6.0,54,0.00,,---,0.00,VWS V14.01,2013-08-13 16:21:00,
2013-08-13 12:22:00,91.2,72.2,29.94,North,0,0.0,6.0,54,0.00,,---,0.00,VWS V14.01,2013-08-13 16:22:00,
2013-08-13 12:23:00,91.2,72.8,29.94,North,0,0.0,6.0,55,0.00,,---,0.00,VWS V14.01,2013-08-13 16:23:00,
2013-08-13 12:24:00,91.4,73.5,29.94,North,0,0.0,6.0,56,0.00,,---,0.00,VWS V14.01,2013-08-13 16:24:00,
2013-08-13 12:26:00,91.6,73.7,29.94,North,0,0.0,6.0,56,0.00,,---,0.00,VWS V14.01,2013-08-13 16:26:00,
2013-08-13 12:27:00,91.6,73.7,29.94,North,0,0.0,6.0,56,0.00,,---,0.00,VWS V14.01,2013-08-13 16:27:00,
2013-08-13 12:29:00,91.6,72.1,29.94,North,0,2.0,6.0,53,0.00,,---,0.00,VWS V14.01,2013-08-13 16:29:00,
2013-08-13 12:33:00,91.6,72.6,29.94,North,0,6.0,7.0,54,0.00,,---,0.00,VWS V14.01,2013-08-13 16:33:00,
2013-08-13 12:35:00,91.6,72.1,29.93,North,0,1.0,7.0,53,0.00,,---,0.00,VWS V14.01,2013-08-13 16:35:00,
2013-08-13 12:36:00,91.6,71.5,29.93,North,0,0.0,7.0,52,0.00,,---,0.00,VWS V14.01,2013-08-13 16:36:00,
2013-08-13 12:38:00,91.8,72.2,29.93,North,0,0.0,7.0,53,0.00,,---,0.00,VWS V14.01,2013-08-13 16:38:00,
2013-08-13 12:39:00,92.1,73.1,29.93,North,0,0.0,7.0,54,0.00,,---,0.00,VWS V14.01,2013-08-13 16:39:00,
2013-08-13 12:40:00,92.1,73.6,29.93,North,0,0.0,7.0,55,0.00,,---,0.00,VWS V14.01,2013-08-13 16:40:00,
2013-08-13 12:42:00,91.8,72.8,29.93,North,0,0.0,7.0,54,0.00,,---,0.00,VWS V14.01,2013-08-13 16:42:00,
2013-08-13 12:43:00,91.8,73.3,29.93,North,0,0.0,7.0,55,0.00,,---,0.00,VWS V14.01,2013-08-13 16:43:00,
2013-08-13 12:45:00,91.6,72.6,29.93,North,0,0.0,7.0,54,0.00,,---,0.00,VWS V14.01,2013-08-13 16:45:00,
2013-08-13 12:46:00,91.6,72.6,29.93,North,0,0.0,7.0,54,0.00,,---,0.00,VWS V14.01,2013-08-13 16:46:00,
2013-08-13 12:47:00,91.6,72.6,29.93,North,0,0.0,7.0,54,0.00,,---,0.00,VWS V14.01,2013-08-13 16:47:00,
2013-08-13 12:48:00,91.6,72.6,29.92,North,0,0.0,7.0,54,0.00,,---,0.00,VWS V14.01,2013-08-13 16:48:00,
2013-08-13 12:50:00,91.6,72.1,29.92,North,0,0.0,7.0,53,0.00,,---,0.00,VWS V14.01,2013-08-13 16:50:00,
2013-08-13 12:51:00,91.6,71.5,29.92,North,0,0.0,7.0,52,0.00,,---,0.00,VWS V14.01,2013-08-13 16:51:00,
2013-08-13 12:52:00,91.6,70.9,29.92,North,0,0.0,7.0,51,0.00,,---,0.00,VWS V14.01,2013-08-13 16:52:00,
2013-08-13 12:53:00,91.6,71.5,29.92,North,0,0.0,7.0,52,0.00,,---,0.00,VWS V14.01,2013-08-13 16:53:00,
2013-08-13 12:55:00,91.4,72.4,29.92,North,0,0.0,7.0,54,0.00,,---,0.00,VWS V14.01,2013-08-13 16:55:00,
2013-08-13 12:57:00,91.2,71.7,29.92,North,0,0.0,7.0,53,0.00,,---,0.00,VWS V14.01,2013-08-13 16:57:00,
2013-08-13 12:58:00,91.2,71.1,29.92,North,0,0.0,7.0,52,0.00,,---,0.00,VWS V14.01,2013-08-13 16:58:00,
2013-08-13 12:59:00,91.2,71.1,29.92,North,0,0.0,7.0,52,0.00,,---,0.00,VWS V14.01,2013-08-13 16:59:00,
2013-08-13 13:00:00,91.2,71.1,29.92,North,0,0.0,7.0,52,0.00,,---,0.00,VWS V14.01,2013-08-13 17:00:00,
2013-08-13 13:01:00,91.0,70.9,29.92,North,0,0.0,7.0,52,0.00,,---,0.00,VWS V14.01,2013-08-13 17:01:00,
2013-08-13 13:02:00,91.0,71.5,29.92,North,0,0.0,7.0,53,0.00,,---,0.00,VWS V14.01,2013-08-13 17:02:00,
2013-08-13 13:04:00,90.7,71.2,29.92,North,0,8.0,9.0,53,0.00,,---,0.00,VWS V14.01,2013-08-13 17:04:00,
2013-08-13 13:05:00,91.0,72.6,29.92,North,0,0.0,9.0,55,0.00,,---,0.00,VWS V14.01,2013-08-13 17:05:00,
2013-08-13 13:07:00,91.0,72.6,29.92,North,0,4.0,9.0,55,0.00,,---,0.00,VWS V14.01,2013-08-13 17:07:00,
2013-08-13 13:12:00,91.8,71.7,29.92,North,0,0.0,9.0,52,0.00,,---,0.00,VWS V14.01,2013-08-13 17:12:00,
2013-08-13 13:13:00,91.8,71.1,29.92,North,0,4.0,9.0,51,0.00,,---,0.00,VWS V14.01,2013-08-13 17:13:00,
2013-08-13 13:15:00,92.3,72.1,29.92,North,0,0.0,9.0,52,0.00,,---,0.00,VWS V14.01,2013-08-13 17:15:00,
2013-08-13 13:18:00,92.9,72.1,29.92,North,0,6.0,9.0,51,0.00,,---,0.00,VWS V14.01,2013-08-13 17:18:00,
2013-08-13 13:19:00,92.9,71.5,29.92,North,0,0.0,9.0,50,0.00,,---,0.00,VWS V14.01,2013-08-13 17:19:00,
2013-08-13 13:20:00,92.9,72.1,29.92,North,0,0.0,9.0,51,0.00,,---,0.00,VWS V14.01,2013-08-13 17:20:00,
2013-08-13 13:23:00,92.9,70.9,29.92,North,0,3.0,9.0,49,0.00,,---,0.00,VWS V14.01,2013-08-13 17:23:00,
2013-08-13 13:24:00,93.2,70.6,29.92,North,0,6.0,9.0,48,0.00,,---,0.00,VWS V14.01,2013-08-13 17:24:00,
2013-08-13 13:26:00,93.4,70.2,29.92,North,0,0.0,9.0,47,0.00,,---,0.00,VWS V14.01,2013-08-13 17:26:00,
2013-08-13 13:28:00,93.6,72.8,29.92,North,0,0.0,9.0,51,0.00,,---,0.00,VWS V14.01,2013-08-13 17:28:00,
2013-08-13 13:30:00,93.8,72.4,29.92,North,0,0.0,9.0,50,0.00,,---,0.00,VWS V14.01,2013-08-13 17:30:00,
2013-08-13 13:32:00,94.0,70.7,29.92,North,0,0.0,9.0,47,0.00,,---,0.00,VWS V14.01,2013-08-13 17:32:00,
2013-08-13 13:34:00,94.5,70.5,29.92,North,0,0.0,9.0,46,0.00,,---,0.00,VWS V14.01,2013-08-13 17:34:00,
2013-08-13 13:36:00,94.9,70.9,29.92,North,0,4.0,9.0,46,0.00,,---,0.00,VWS V14.01,2013-08-13 17:36:00,
2013-08-13 13:37:00,94.9,70.9,29.92,North,0,4.0,9.0,46,0.00,,---,0.00,VWS V14.01,2013-08-13 17:37:00,
2013-08-13 13:38:00,95.1,70.4,29.92,North,0,0.0,9.0,45,0.00,,---,0.00,VWS V14.01,2013-08-13 17:38:00,
2013-08-13 13:40:00,94.9,72.2,29.92,North,0,1.0,9.0,48,0.00,,---,0.00,VWS V14.01,2013-08-13 17:40:00,
2013-08-13 13:43:00,93.8,71.2,29.92,North,0,0.0,9.0,48,0.00,,---,0.00,VWS V14.01,2013-08-13 17:43:00,
2013-08-13 13:44:00,93.4,72.0,29.92,North,0,0.0,9.0,50,0.00,,---,0.00,VWS V14.01,2013-08-13 17:44:00,
2013-08-13 13:45:00,93.2,71.8,29.92,North,0,0.0,9.0,50,0.00,,---,0.00,VWS V14.01,2013-08-13 17:45:00,
2013-08-13 13:46:00,93.2,71.8,29.92,North,0,0.0,9.0,50,0.00,,---,0.00,VWS V14.01,2013-08-13 17:46:00,
2013-08-13 13:50:00,93.2,71.2,29.91,North,0,0.0,9.0,49,0.00,,---,0.00,VWS V14.01,2013-08-13 17:50:00,
2013-08-13 13:51:00,93.2,70.0,29.91,North,0,0.0,9.0,47,0.00,,---,0.00,VWS V14.01,2013-08-13 17:51:00,
2013-08-13 13:52:00,93.4,70.8,29.91,North,0,0.0,9.0,48,0.00,,---,0.00,VWS V14.01,2013-08-13 17:52:00,
2013-08-13 13:56:00,94.0,70.7,29.91,North,0,0.0,9.0,47,0.00,,---,0.00,VWS V14.01,2013-08-13 17:56:00,
2013-08-13 13:57:00,94.0,70.1,29.91,North,0,0.0,9.0,46,0.00,,---,0.00,VWS V14.01,2013-08-13 17:57:00,
2013-08-13 13:58:00,94.0,70.7,29.91,North,0,0.0,9.0,47,0.00,,---,0.00,VWS V14.01,2013-08-13 17:58:00,
2013-08-13 14:01:00,93.8,70.5,29.91,North,0,0.0,9.0,47,0.00,,---,0.00,VWS V14.01,2013-08-13 18:01:00,
2013-08-13 14:02:00,93.6,72.8,29.91,North,0,5.0,9.0,51,0.00,,---,0.00,VWS V14.01,2013-08-13 18:02:00,
2013-08-13 14:03:00,93.6,72.8,29.91,North,0,0.0,9.0,51,0.00,,---,0.00,VWS V14.01,2013-08-13 18:03:00,
2013-08-13 14:04:00,93.6,72.2,29.91,North,0,0.0,9.0,50,0.00,,---,0.00,VWS V14.01,2013-08-13 18:04:00,
2013-08-13 14:07:00,93.6,72.2,29.91,North,0,0.0,6.0,50,0.00,,---,0.00,VWS V14.01,2013-08-13 18:07:00,
2013-08-13 14:08:00,93.6,72.2,29.91,North,0,0.0,6.0,50,0.00,,---,0.00,VWS V14.01,2013-08-13 18:08:00,
2013-08-13 14:09:00,93.4,70.8,29.91,North,0,4.0,6.0,48,0.00,,---,0.00,VWS V14.01,2013-08-13 18:09:00,
2013-08-13 14:10:00,93.4,70.8,29.91,North,0,0.0,6.0,48,0.00,,---,0.00,VWS V14.01,2013-08-13 18:10:00,
2013-08-13 14:12:00,93.4,71.4,29.91,North,0,0.0,6.0,49,0.00,,---,0.00,VWS V14.01,2013-08-13 18:12:00,
2013-08-13 14:14:00,93.6,71.6,29.91,North,0,0.0,6.0,49,0.00,,---,0.00,VWS V14.01,2013-08-13 18:14:00,
2013-08-13 14:15:00,93.8,71.2,29.91,North,0,0.0,6.0,48,0.00,,---,0.00,VWS V14.01,2013-08-13 18:15:00,
2013-08-13 14:16:00,93.8,69.9,29.91,North,0,0.0,6.0,46,0.00,,---,0.00,VWS V14.01,2013-08-13 18:16:00,
2013-08-13 14:17:00,94.0,70.7,29.91,North,0,0.0,6.0,47,0.00,,---,0.00,VWS V14.01,2013-08-13 18:17:00,
2013-08-13 14:19:00,94.3,71.6,29.91,North,0,0.0,6.0,48,0.00,,---,0.00,VWS V14.01,2013-08-13 18:19:00,
2013-08-13 14:20:00,94.5,69.9,29.91,North,0,0.0,6.0,45,0.00,,---,0.00,VWS V14.01,2013-08-13 18:20:00,
2013-08-13 14:22:00,94.7,72.6,29.91,North,0,0.0,6.0,49,0.00,,---,0.00,VWS V14.01,2013-08-13 18:22:00,
2013-08-13 14:24:00,94.7,72.0,29.91,North,0,0.0,6.0,48,0.00,,---,0.00,VWS V14.01,2013-08-13 18:24:00,
2013-08-13 14:25:00,94.7,72.0,29.91,North,0,0.0,6.0,48,0.00,,---,0.00,VWS V14.01,2013-08-13 18:25:00,
2013-08-13 14:27:00,94.7,70.7,29.91,North,0,0.0,6.0,46,0.00,,---,0.00,VWS V14.01,2013-08-13 18:27:00,
2013-08-13 14:29:00,94.9,68.9,29.91,North,0,1.0,6.0,43,0.00,,---,0.00,VWS V14.01,2013-08-13 18:29:00,
2013-08-13 14:30:00,94.9,68.9,29.91,North,0,0.0,6.0,43,0.00,,---,0.00,VWS V14.01,2013-08-13 18:30:00,
2013-08-13 14:33:00,95.1,69.8,29.91,North,0,0.0,6.0,44,0.00,,---,0.00,VWS V14.01,2013-08-13 18:33:00,
2013-08-13 14:34:00,95.4,70.1,29.90,North,0,0.0,6.0,44,0.00,,---,0.00,VWS V14.01,2013-08-13 18:34:00,
2013-08-13 14:35:00,95.6,68.9,29.90,North,0,0.0,6.0,42,0.00,,---,0.00,VWS V14.01,2013-08-13 18:35:00,
2013-08-13 14:36:00,95.9,69.1,29.90,North,0,0.0,6.0,42,0.00,,---,0.00,VWS V14.01,2013-08-13 18:36:00,
2013-08-13 14:38:00,95.9,69.1,29.90,North,0,0.0,6.0,42,0.00,,---,0.00,VWS V14.01,2013-08-13 18:38:00,
2013-08-13 14:39:00,95.6,68.9,29.90,North,0,0.0,6.0,42,0.00,,---,0.00,VWS V14.01,2013-08-13 18:39:00,
2013-08-13 14:40:00,95.4,69.4,29.90,North,0,0.0,6.0,43,0.00,,---,0.00,VWS V14.01,2013-08-13 18:40:00,
2013-08-13 14:41:00,95.4,68.7,29.90,North,0,0.0,6.0,42,0.00,,---,0.00,VWS V14.01,2013-08-13 18:41:00,
2013-08-13 14:43:00,95.1,68.4,29.90,North,0,0.0,6.0,42,0.00,,---,0.00,VWS V14.01,2013-08-13 18:43:00,
2013-08-13 14:44:00,95.1,68.4,29.90,North,0,0.0,6.0,42,0.00,,---,0.00,VWS V14.01,2013-08-13 18:44:00,
2013-08-13 14:46:00,94.9,69.6,29.90,North,0,0.0,6.0,44,0.00,,---,0.00,VWS V14.01,2013-08-13 18:46:00,
2013-08-13 14:49:00,94.9,70.2,29.90,North,0,0.0,6.0,45,0.00,,---,0.00,VWS V14.01,2013-08-13 18:49:00,
2013-08-13 14:51:00,94.9,70.9,29.90,North,0,0.0,6.0,46,0.00,,---,0.00,VWS V14.01,2013-08-13 18:51:00,
2013-08-13 14:52:00,94.7,70.7,29.90,North,0,0.0,6.0,46,0.00,,---,0.00,VWS V14.01,2013-08-13 18:52:00,
2013-08-13 14:53:00,94.7,70.1,29.90,North,0,0.0,6.0,45,0.00,,---,0.00,VWS V14.01,2013-08-13 18:53:00,
2013-08-13 14:55:00,94.0,70.1,29.90,North,0,0.0,6.0,46,0.00,,---,0.00,VWS V14.01,2013-08-13 18:55:00,
2013-08-13 14:56:00,93.8,69.3,29.90,North,0,0.0,6.0,45,0.00,,---,0.00,VWS V14.01,2013-08-13 18:56:00,
2013-08-13 14:57:00,93.6,69.7,29.90,North,0,0.0,6.0,46,0.00,,---,0.00,VWS V14.01,2013-08-13 18:57:00,
2013-08-13 14:59:00,93.2,73.0,29.90,North,0,0.0,6.0,52,0.00,,---,0.00,VWS V14.01,2013-08-13 18:59:00,
2013-08-13 15:01:00,93.2,74.6,29.90,North,0,0.0,6.0,55,0.00,,---,0.00,VWS V14.01,2013-08-13 19:01:00,
2013-08-13 15:02:00,93.2,75.7,29.90,North,0,0.0,6.0,57,0.00,,---,0.00,VWS V14.01,2013-08-13 19:02:00,
2013-08-13 15:03:00,93.2,74.6,29.90,North,0,0.0,6.0,55,0.00,,---,0.00,VWS V14.01,2013-08-13 19:03:00,
2013-08-13 15:04:00,93.2,75.7,29.90,North,0,0.0,6.0,57,0.00,,---,0.00,VWS V14.01,2013-08-13 19:04:00,
2013-08-13 15:07:00,93.6,76.6,29.90,North,0,0.0,5.0,58,0.00,,---,0.00,VWS V14.01,2013-08-13 19:07:00,
2013-08-13 15:09:00,94.0,75.4,29.90,North,0,0.0,5.0,55,0.00,,---,0.00,VWS V14.01,2013-08-13 19:09:00,
2013-08-13 15:10:00,94.3,75.7,29.90,North,0,0.0,5.0,55,0.00,,---,0.00,VWS V14.01,2013-08-13 19:10:00,
2013-08-13 15:14:00,94.9,75.7,29.90,North,0,0.0,5.0,54,0.00,,---,0.00,VWS V14.01,2013-08-13 19:14:00,
2013-08-13 15:15:00,95.1,75.8,29.90,North,0,0.0,5.0,54,0.00,,---,0.00,VWS V14.01,2013-08-13 19:15:00,
2013-08-13 15:19:00,95.4,73.8,29.89,North,0,0.0,5.0,50,0.00,,---,0.00,VWS V14.01,2013-08-13 19:19:00,
2013-08-13 15:20:00,95.4,74.4,29.89,North,0,0.0,5.0,51,0.00,,---,0.00,VWS V14.01,2013-08-13 19:20:00,
2013-08-13 15:21:00,95.4,74.4,29.89,North,0,0.0,5.0,51,0.00,,---,0.00,VWS V14.01,2013-08-13 19:21:00,
2013-08-13 15:22:00,94.9,73.9,29.89,North,0,0.0,5.0,51,0.00,,---,0.00,VWS V14.01,2013-08-13 19:22:00,
2013-08-13 15:25:00,94.3,74.6,29.89,North,0,0.0,5.0,53,0.00,,---,0.00,VWS V14.01,2013-08-13 19:25:00,
2013-08-13 15:26:00,94.3,74.6,29.89,North,0,0.0,5.0,53,0.00,,---,0.00,VWS V14.01,2013-08-13 19:26:00,
2013-08-13 15:27:00,94.0,74.3,29.89,North,0,0.0,5.0,53,0.00,,---,0.00,VWS V14.01,2013-08-13 19:27:00,
2013-08-13 15:29:00,93.4,74.3,29.89,North,0,0.0,5.0,54,0.00,,---,0.00,VWS V14.01,2013-08-13 19:29:00,
2013-08-13 15:30:00,93.2,74.1,29.89,North,0,0.0,5.0,54,0.00,,---,0.00,VWS V14.01,2013-08-13 19:30:00,
2013-08-13 15:32:00,92.9,74.4,29.89,North,0,0.0,5.0,55,0.00,,---,0.00,VWS V14.01,2013-08-13 19:32:00,
2013-08-13 15:33:00,92.7,74.2,29.89,North,0,0.0,5.0,55,0.00,,---,0.00,VWS V14.01,2013-08-13 19:33:00,
2013-08-13 15:34:00,92.5,74.5,29.89,North,0,0.0,5.0,56,0.00,,---,0.00,VWS V14.01,2013-08-13 19:34:00,
2013-08-13 15:35:00,92.3,74.9,29.89,North,0,0.0,5.0,57,0.00,,---,0.00,VWS V14.01,2013-08-13 19:35:00,
2013-08-13 15:38:00,91.8,74.9,29.89,North,0,0.0,5.0,58,0.00,,---,0.00,VWS V14.01,2013-08-13 19:38:00,
2013-08-13 15:40:00,91.4,75.1,29.89,North,0,0.0,5.0,59,0.00,,---,0.00,VWS V14.01,2013-08-13 19:40:00,
2013-08-13 15:41:00,91.0,74.7,29.89,North,0,5.0,6.0,59,0.00,,---,0.00,VWS V14.01,2013-08-13 19:41:00,
2013-08-13 15:42:00,90.7,74.4,29.89,North,0,7.0,7.0,59,0.00,,---,0.00,VWS V14.01,2013-08-13 19:42:00,
2013-08-13 15:43:00,90.3,74.5,29.89,North,0,0.0,7.0,60,0.00,,---,0.00,VWS V14.01,2013-08-13 19:43:00,
2013-08-13 15:46:00,90.1,74.3,29.89,North,0,0.0,9.0,60,0.00,,---,0.00,VWS V14.01,2013-08-13 19:46:00,
2013-08-13 15:47:00,89.9,74.7,29.89,North,0,0.0,9.0,61,0.00,,---,0.00,VWS V14.01,2013-08-13 19:47:00,
2013-08-13 15:49:00,90.3,75.5,29.89,North,0,0.0,9.0,62,0.00,,---,0.00,VWS V14.01,2013-08-13 19:49:00,
2013-08-13 15:51:00,90.5,75.2,29.89,North,0,0.0,9.0,61,0.00,,---,0.00,VWS V14.01,2013-08-13 19:51:00,
2013-08-13 15:52:00,90.7,74.9,29.89,North,0,2.0,9.0,60,0.00,,---,0.00,VWS V14.01,2013-08-13 19:52:00,
2013-08-13 15:53:00,91.0,75.7,29.89,North,0,0.0,9.0,61,0.00,,---,0.00,VWS V14.01,2013-08-13 19:53:00,
2013-08-13 15:56:00,91.4,75.1,29.89,North,0,0.0,9.0,59,0.00,,---,0.00,VWS V14.01,2013-08-13 19:56:00,
2013-08-13 15:57:00,91.4,75.1,29.89,North,0,0.0,9.0,59,0.00,,---,0.00,VWS V14.01,2013-08-13 19:57:00,
2013-08-13 15:59:00,91.8,75.4,29.89,North,0,0.0,9.0,59,0.00,,---,0.00,VWS V14.01,2013-08-13 19:59:00,
2013-08-13 16:01:00,92.3,75.9,29.89,North,0,0.0,9.0,59,0.00,,---,0.00,VWS V14.01,2013-08-13 20:01:00,
2013-08-13 16:04:00,92.7,75.2,29.88,North,0,0.0,9.0,57,0.00,,---,0.00,VWS V14.01,2013-08-13 20:04:00,
2013-08-13 16:05:00,92.9,75.9,29.88,North,0,0.0,0.0,58,0.00,,---,0.00,VWS V14.01,2013-08-13 20:05:00,
2013-08-13 16:06:00,92.9,75.9,29.88,North,0,5.0,5.0,58,0.00,,---,0.00,VWS V14.01,2013-08-13 20:06:00,
2013-08-13 16:08:00,93.2,76.2,29.88,North,0,0.0,5.0,58,0.00,,---,0.00,VWS V14.01,2013-08-13 20:08:00,
2013-08-13 16:09:00,93.2,75.2,29.88,North,0,0.0,5.0,56,0.00,,---,0.00,VWS V14.01,2013-08-13 20:09:00,
2013-08-13 16:11:00,93.4,75.9,29.88,North,0,0.0,5.0,57,0.00,,---,0.00,VWS V14.01,2013-08-13 20:11:00,
2013-08-13 16:12:00,93.4,75.9,29.88,North,0,1.0,5.0,57,0.00,,---,0.00,VWS V14.01,2013-08-13 20:12:00,
2013-08-13 16:14:00,93.6,75.0,29.88,North,0,0.0,9.0,55,0.00,,---,0.00,VWS V14.01,2013-08-13 20:14:00,
2013-08-13 16:16:00,93.8,75.2,29.88,North,0,5.0,9.0,55,0.00,,---,0.00,VWS V14.01,2013-08-13 20:16:00,
2013-08-13 16:17:00,93.8,75.7,29.88,North,0,1.0,9.0,56,0.00,,---,0.00,VWS V14.01,2013-08-13 20:17:00,
2013-08-13 16:18:00,93.8,75.2,29.88,North,0,0.0,9.0,55,0.00,,---,0.00,VWS V14.01,2013-08-13 20:18:00,
2013-08-13 16:22:00,93.8,75.2,29.88,North,0,0.0,9.0,55,0.00,,---,0.00,VWS V14.01,2013-08-13 20:22:00,
2013-08-13 16:23:00,93.8,75.7,29.88,North,0,0.0,9.0,56,0.00,,---,0.00,VWS V14.01,2013-08-13 20:23:00,
2013-08-13 16:24:00,93.8,75.2,29.88,North,0,0.0,9.0,55,0.00,,---,0.00,VWS V14.01,2013-08-13 20:24:00,
2013-08-13 16:25:00,93.8,74.7,29.88,North,0,0.0,9.0,54,0.00,,---,0.00,VWS V14.01,2013-08-13 20:25:00,
2013-08-13 16:29:00,94.7,75.5,29.88,North,0,0.0,9.0,54,0.00,,---,0.00,VWS V14.01,2013-08-13 20:29:00,
2013-08-13 16:30:00,94.7,75.5,29.88,North,0,0.0,9.0,54,0.00,,---,0.00,VWS V14.01,2013-08-13 20:30:00,
2013-08-13 16:31:00,94.7,75.5,29.88,North,0,0.0,9.0,54,0.00,,---,0.00,VWS V14.01,2013-08-13 20:31:00,
2013-08-13 16:35:00,94.7,74.9,29.88,North,0,0.0,9.0,53,0.00,,---,0.00,VWS V14.01,2013-08-13 20:35:00,
2013-08-13 16:36:00,94.7,74.9,29.88,North,0,0.0,9.0,53,0.00,,---,0.00,VWS V14.01,2013-08-13 20:36:00,
2013-08-13 16:37:00,94.9,75.7,29.88,North,0,0.0,9.0,54,0.00,,---,0.00,VWS V14.01,2013-08-13 20:37:00,
2013-08-13 16:41:00,95.1,74.7,29.88,North,0,1.0,9.0,52,0.00,,---,0.00,VWS V14.01,2013-08-13 20:41:00,
2013-08-13 16:42:00,95.1,74.7,29.88,North,0,0.0,9.0,52,0.00,,---,0.00,VWS V14.01,2013-08-13 20:42:00,
2013-08-13 16:44:00,95.4,75.6,29.88,North,0,1.0,9.0,53,0.00,,---,0.00,VWS V14.01,2013-08-13 20:44:00,
2013-08-13 16:46:00,95.1,74.1,29.88,North,0,2.0,9.0,51,0.00,,---,0.00,VWS V14.01,2013-08-13 20:46:00,
2013-08-13 16:47:00,94.9,74.5,29.88,North,0,0.0,9.0,52,0.00,,---,0.00,VWS V14.01,2013-08-13 20:47:00,
2013-08-13 16:48:00,94.9,74.5,29.88,North,0,0.0,9.0,52,0.00,,---,0.00,VWS V14.01,2013-08-13 20:48:00,
2013-08-13 16:50:00,94.9,75.1,29.87,North,0,0.0,9.0,53,0.00,,---,0.00,VWS V14.01,2013-08-13 20:50:00,
2013-08-13 16:52:00,94.7,74.3,29.87,North,0,2.0,9.0,52,0.00,,---,0.00,VWS V14.01,2013-08-13 20:52:00,
2013-08-13 16:53:00,94.7,74.3,29.87,North,0,0.0,9.0,52,0.00,,---,0.00,VWS V14.01,2013-08-13 20:53:00,
2013-08-13 16:55:00,94.7,74.9,29.87,North,0,0.0,9.0,53,0.00,,---,0.00,VWS V14.01,2013-08-13 20:55:00,
2013-08-13 16:56:00,94.7,74.9,29.87,North,0,0.0,9.0,53,0.00,,---,0.00,VWS V14.01,2013-08-13 20:56:00,
2013-08-13 16:57:00,94.7,74.3,29.87,North,0,0.0,9.0,52,0.00,,---,0.00,VWS V14.01,2013-08-13 20:57:00,
2013-08-13 17:00:00,94.7,74.9,29.87,North,0,0.0,9.0,53,0.00,,---,0.00,VWS V14.01,2013-08-13 21:00:00,
2013-08-13 17:02:00,94.7,74.3,29.87,North,0,0.0,9.0,52,0.00,,---,0.00,VWS V14.01,2013-08-13 21:02:00,
2013-08-13 17:06:00,94.7,75.5,29.87,North,0,0.0,1.0,54,0.00,,---,0.00,VWS V14.01,2013-08-13 21:06:00,
2013-08-13 17:07:00,94.7,74.3,29.87,North,0,2.0,2.0,52,0.00,,---,0.00,VWS V14.01,2013-08-13 21:07:00,
2013-08-13 17:08:00,94.7,74.3,29.87,North,0,0.0,2.0,52,0.00,,---,0.00,VWS V14.01,2013-08-13 21:08:00,
2013-08-13 17:09:00,94.7,74.3,29.87,North,0,0.0,2.0,52,0.00,,---,0.00,VWS V14.01,2013-08-13 21:09:00,
2013-08-13 17:11:00,94.7,74.3,29.87,North,0,0.0,2.0,52,0.00,,---,0.00,VWS V14.01,2013-08-13 21:11:00,
2013-08-13 17:13:00,94.9,75.1,29.87,North,0,0.0,8.0,53,0.00,,---,0.00,VWS V14.01,2013-08-13 21:13:00,
2013-08-13 17:14:00,94.9,75.1,29.87,North,0,0.0,8.0,53,0.00,,---,0.00,VWS V14.01,2013-08-13 21:14:00,
2013-08-13 17:15:00,94.9,75.1,29.87,North,0,5.0,8.0,53,0.00,,---,0.00,VWS V14.01,2013-08-13 21:15:00,
2013-08-13 17:16:00,94.7,74.3,29.87,North,0,0.0,8.0,52,0.00,,---,0.00,VWS V14.01,2013-08-13 21:16:00,
2013-08-13 17:19:00,94.7,74.9,29.87,North,0,0.0,8.0,53,0.00,,---,0.00,VWS V14.01,2013-08-13 21:19:00,
2013-08-13 17:21:00,94.7,74.9,29.87,North,0,0.0,8.0,53,0.00,,---,0.00,VWS V14.01,2013-08-13 21:21:00,
2013-08-13 17:22:00,94.5,74.2,29.87,North,0,0.0,8.0,52,0.00,,---,0.00,VWS V14.01,2013-08-13 21:22:00,
2013-08-13 17:24:00,94.0,74.3,29.87,North,0,0.0,8.0,53,0.00,,---,0.00,VWS V14.01,2013-08-13 21:24:00,
2013-08-13 17:26:00,94.0,74.3,29.87,North,0,0.0,8.0,53,0.00,,---,0.00,VWS V14.01,2013-08-13 21:26:00,
2013-08-13 17:29:00,93.6,74.5,29.87,North,0,0.0,8.0,54,0.00,,---,0.00,VWS V14.01,2013-08-13 21:29:00,
2013-08-13 17:30:00,93.6,74.5,29.87,North,0,0.0,8.0,54,0.00,,---,0.00,VWS V14.01,2013-08-13 21:30:00,
2013-08-13 17:31:00,93.6,73.9,29.87,North,0,0.0,8.0,53,0.00,,---,0.00,VWS V14.01,2013-08-13 21:31:00,
2013-08-13 17:32:00,93.6,74.5,29.87,North,0,0.0,8.0,54,0.00,,---,0.00,VWS V14.01,2013-08-13 21:32:00,
2013-08-13 17:34:00,93.6,74.5,29.86,North,0,0.0,8.0,54,0.00,,---,0.00,VWS V14.01,2013-08-13 21:34:00,
2013-08-13 17:35:00,93.6,74.5,29.86,North,0,5.0,8.0,54,0.00,,---,0.00,VWS V14.01,2013-08-13 21:35:00,
2013-08-13 17:36:00,93.6,74.5,29.86,North,0,0.0,8.0,54,0.00,,---,0.00,VWS V14.01,2013-08-13 21:36:00,
2013-08-13 17:37:00,93.6,74.5,29.86,North,0,0.0,8.0,54,0.00,,---,0.00,VWS V14.01,2013-08-13 21:37:00,
2013-08-13 17:39:00,93.4,74.8,29.86,North,0,0.0,8.0,55,0.00,,---,0.00,VWS V14.01,2013-08-13 21:39:00,
2013-08-13 17:40:00,93.4,74.8,29.86,North,0,0.0,8.0,55,0.00,,---,0.00,VWS V14.01,2013-08-13 21:40:00,
2013-08-13 17:41:00,93.4,74.3,29.86,North,0,1.0,8.0,54,0.00,,---,0.00,VWS V14.01,2013-08-13 21:41:00,
2013-08-13 17:42:00,93.4,74.3,29.86,North,0,0.0,8.0,54,0.00,,---,0.00,VWS V14.01,2013-08-13 21:42:00,
2013-08-13 17:43:00,93.4,74.3,29.86,North,0,0.0,8.0,54,0.00,,---,0.00,VWS V14.01,2013-08-13 21:43:00,
2013-08-13 17:45:00,93.4,74.3,29.86,North,0,0.0,8.0,54,0.00,,---,0.00,VWS V14.01,2013-08-13 21:45:00,
2013-08-13 17:46:00,93.4,74.8,29.86,North,0,4.0,8.0,55,0.00,,---,0.00,VWS V14.01,2013-08-13 21:46:00,
2013-08-13 17:47:00,93.4,74.8,29.86,North,0,0.0,8.0,55,0.00,,---,0.00,VWS V14.01,2013-08-13 21:47:00,
2013-08-13 17:48:00,93.4,74.3,29.86,North,0,0.0,8.0,54,0.00,,---,0.00,VWS V14.01,2013-08-13 21:48:00,
2013-08-13 17:49:00,93.4,74.8,29.86,North,0,0.0,8.0,55,0.00,,---,0.00,VWS V14.01,2013-08-13 21:49:00,
2013-08-13 17:51:00,93.6,74.5,29.86,North,0,0.0,8.0,54,0.00,,---,0.00,VWS V14.01,2013-08-13 21:51:00,
2013-08-13 17:52:00,93.6,74.5,29.86,North,0,0.0,8.0,54,0.00,,---,0.00,VWS V14.01,2013-08-13 21:52:00,
2013-08-13 17:54:00,93.6,74.5,29.86,North,0,0.0,8.0,54,0.00,,---,0.00,VWS V14.01,2013-08-13 21:54:00,
2013-08-13 17:55:00,93.4,73.7,29.86,North,0,0.0,8.0,53,0.00,,---,0.00,VWS V14.01,2013-08-13 21:55:00,
2013-08-13 17:57:00,93.4,74.3,29.86,North,0,0.0,8.0,54,0.00,,---,0.00,VWS V14.01,2013-08-13 21:57:00,
2013-08-13 17:58:00,93.4,74.3,29.86,North,0,1.0,8.0,54,0.00,,---,0.00,VWS V14.01,2013-08-13 21:58:00,
2013-08-13 17:59:00,93.4,74.3,29.86,North,0,0.0,8.0,54,0.00,,---,0.00,VWS V14.01,2013-08-13 21:59:00,
2013-08-13 18:00:00,93.2,74.1,29.86,North,0,0.0,8.0,54,0.00,,---,0.00,VWS V14.01,2013-08-13 22:00:00,
2013-08-13 18:01:00,93.2,74.1,29.86,North,0,3.0,8.0,54,0.00,,---,0.00,VWS V14.01,2013-08-13 22:01:00,
2013-08-13 18:03:00,92.9,74.4,29.86,North,0,0.0,8.0,55,0.00,,---,0.00,VWS V14.01,2013-08-13 22:03:00,
2013-08-13 18:04:00,92.7,74.2,29.85,North,0,6.0,8.0,55,0.00,,---,0.00,VWS V14.01,2013-08-13 22:04:00,
2013-08-13 18:06:00,92.5,75.1,29.85,North,0,0.0,3.0,57,0.00,,---,0.00,VWS V14.01,2013-08-13 22:06:00,
2013-08-13 18:07:00,92.5,75.1,29.85,North,0,0.0,3.0,57,0.00,,---,0.00,VWS V14.01,2013-08-13 22:07:00,
2013-08-13 18:08:00,92.3,75.4,29.85,North,0,4.0,4.0,58,0.00,,---,0.00,VWS V14.01,2013-08-13 22:08:00,
2013-08-13 18:09:00,92.3,75.4,29.85,North,0,4.0,10.0,58,0.00,,---,0.00,VWS V14.01,2013-08-13 22:09:00,
2013-08-13 18:11:00,91.8,74.9,29.85,North,0,1.0,10.0,58,0.00,,---,0.00,VWS V14.01,2013-08-13 22:11:00,
2013-08-13 18:12:00,91.8,74.9,29.85,North,0,0.0,10.0,58,0.00,,---,0.00,VWS V14.01,2013-08-13 22:12:00,
2013-08-13 18:15:00,91.8,75.4,29.85,North,0,6.0,10.0,59,0.00,,---,0.00,VWS V14.01,2013-08-13 22:15:00,
2013-08-13 18:16:00,91.6,75.2,29.85,North,0,2.0,10.0,59,0.00,,---,0.00,VWS V14.01,2013-08-13 22:16:00,
2013-08-13 18:17:00,91.6,75.2,29.85,North,0,2.0,10.0,59,0.00,,---,0.00,VWS V14.01,2013-08-13 22:17:00,
2013-08-13 18:20:00,91.2,74.9,29.85,North,0,9.0,12.0,59,0.00,,---,0.00,VWS V14.01,2013-08-13 22:20:00,
2013-08-13 18:21:00,91.2,74.9,29.85,North,0,0.0,12.0,59,0.00,,---,0.00,VWS V14.01,2013-08-13 22:21:00,
2013-08-13 18:22:00,91.0,74.7,29.85,North,0,0.0,12.0,59,0.00,,---,0.00,VWS V14.01,2013-08-13 22:22:00,
2013-08-13 18:23:00,91.0,74.7,29.85,North,0,0.0,12.0,59,0.00,,---,0.00,VWS V14.01,2013-08-13 22:23:00,
2013-08-13 18:25:00,90.5,74.7,29.85,North,0,0.0,12.0,60,0.00,,---,0.00,VWS V14.01,2013-08-13 22:25:00,
2013-08-13 18:27:00,90.5,74.7,29.85,North,0,0.0,12.0,60,0.00,,---,0.00,VWS V14.01,2013-08-13 22:27:00,
2013-08-13 18:28:00,90.3,75.0,29.85,North,0,0.0,12.0,61,0.00,,---,0.00,VWS V14.01,2013-08-13 22:28:00,
2013-08-13 18:29:00,90.3,75.0,29.85,North,0,0.0,12.0,61,0.00,,---,0.00,VWS V14.01,2013-08-13 22:29:00,
2013-08-13 18:30:00,90.3,75.0,29.85,North,0,0.0,12.0,61,0.00,,---,0.00,VWS V14.01,2013-08-13 22:30:00,
2013-08-13 18:32:00,90.1,74.8,29.85,North,0,4.0,12.0,61,0.00,,---,0.00,VWS V14.01,2013-08-13 22:32:00,
2013-08-13 18:34:00,90.1,74.8,29.85,North,0,2.0,12.0,61,0.00,,---,0.00,VWS V14.01,2013-08-13 22:34:00,
2013-08-13 18:35:00,90.1,74.8,29.85,North,0,0.0,12.0,61,0.00,,---,0.00,VWS V14.01,2013-08-13 22:35:00,
2013-08-13 18:37:00,90.1,74.8,29.85,North,0,1.0,12.0,61,0.00,,---,0.00,VWS V14.01,2013-08-13 22:37:00,
2013-08-13 18:39:00,90.1,74.3,29.85,North,0,0.0,12.0,60,0.00,,---,0.00,VWS V14.01,2013-08-13 22:39:00,
2013-08-13 18:40:00,90.1,74.3,29.85,North,0,0.0,12.0,60,0.00,,---,0.00,VWS V14.01,2013-08-13 22:40:00,
2013-08-13 18:42:00,90.1,74.8,29.85,North,0,6.0,12.0,61,0.00,,---,0.00,VWS V14.01,2013-08-13 22:42:00,
2013-08-13 18:45:00,90.1,74.3,29.85,North,0,0.0,12.0,60,0.00,,---,0.00,VWS V14.01,2013-08-13 22:45:00,
2013-08-13 18:46:00,89.9,74.7,29.85,North,0,0.0,12.0,61,0.00,,---,0.00,VWS V14.01,2013-08-13 22:46:00,
2013-08-13 18:47:00,89.9,74.7,29.85,North,0,0.0,12.0,61,0.00,,---,0.00,VWS V14.01,2013-08-13 22:47:00,
2013-08-13 18:50:00,89.9,74.7,29.84,North,0,0.0,12.0,61,0.00,,---,0.00,VWS V14.01,2013-08-13 22:50:00,
2013-08-13 18:51:00,89.7,74.5,29.84,North,0,0.0,12.0,61,0.00,,---,0.00,VWS V14.01,2013-08-13 22:51:00,
2013-08-13 18:53:00,89.7,75.0,29.84,North,0,0.0,12.0,62,0.00,,---,0.00,VWS V14.01,2013-08-13 22:53:00,
2013-08-13 18:54:00,89.7,75.0,29.84,North,0,5.0,12.0,62,0.00,,---,0.00,VWS V14.01,2013-08-13 22:54:00,
2013-08-13 18:56:00,89.5,75.2,29.84,North,0,0.0,12.0,63,0.00,,---,0.00,VWS V14.01,2013-08-13 22:56:00,
2013-08-13 18:58:00,89.5,75.2,29.84,North,0,0.0,12.0,63,0.00,,---,0.00,VWS V14.01,2013-08-13 22:58:00,
2013-08-13 18:59:00,89.3,75.1,29.84,North,0,0.0,12.0,63,0.00,,---,0.00,VWS V14.01,2013-08-13 22:59:00,
2013-08-13 19:00:00,89.3,75.1,29.84,North,0,0.0,12.0,63,0.00,,---,0.00,VWS V14.01,2013-08-13 23:00:00,
2013-08-13 19:02:00,89.0,75.2,29.84,North,0,0.0,12.0,64,0.00,,---,0.00,VWS V14.01,2013-08-13 23:02:00,
2013-08-13 19:04:00,88.8,75.5,29.85,North,0,0.0,12.0,65,0.00,,---,0.00,VWS V14.01,2013-08-13 23:04:00,
2013-08-13 19:05:00,88.6,75.3,29.85,North,0,0.0,1.0,65,0.00,,---,0.00,VWS V14.01,2013-08-13 23:05:00,
2013-08-13 19:07:00,88.4,75.1,29.85,North,0,0.0,5.0,65,0.00,,---,0.00,VWS V14.01,2013-08-13 23:07:00,
2013-08-13 19:09:00,88.2,75.4,29.85,North,0,0.0,5.0,66,0.00,,---,0.00,VWS V14.01,2013-08-13 23:09:00,
2013-08-13 19:10:00,88.2,75.4,29.85,North,0,1.0,5.0,66,0.00,,---,0.00,VWS V14.01,2013-08-13 23:10:00,
2013-08-13 19:11:00,88.0,75.2,29.85,North,0,0.0,5.0,66,0.00,,---,0.00,VWS V14.01,2013-08-13 23:11:00,
2013-08-13 19:12:00,88.0,75.7,29.85,North,0,2.0,5.0,67,0.00,,---,0.00,VWS V14.01,2013-08-13 23:12:00,
2013-08-13 19:15:00,87.8,75.5,29.85,North,0,0.0,5.0,67,0.00,,---,0.00,VWS V14.01,2013-08-13 23:15:00,
2013-08-13 19:16:00,87.8,75.5,29.85,North,0,0.0,5.0,67,0.00,,---,0.00,VWS V14.01,2013-08-13 23:16:00,
2013-08-13 19:17:00,87.6,75.3,29.85,North,0,0.0,5.0,67,0.00,,---,0.00,VWS V14.01,2013-08-13 23:17:00,
2013-08-13 19:20:00,87.4,75.6,29.85,North,0,0.0,5.0,68,0.00,,---,0.00,VWS V14.01,2013-08-13 23:20:00,
2013-08-13 19:21:00,87.4,75.6,29.85,North,0,0.0,5.0,68,0.00,,---,0.00,VWS V14.01,2013-08-13 23:21:00,
2013-08-13 19:22:00,87.4,75.6,29.85,North,0,0.0,5.0,68,0.00,,---,0.00,VWS V14.01,2013-08-13 23:22:00,
2013-08-13 19:25:00,87.4,76.0,29.85,North,0,0.0,5.0,69,0.00,,---,0.00,VWS V14.01,2013-08-13 23:25:00,
2013-08-13 19:27:00,87.4,76.0,29.85,North,0,0.0,5.0,69,0.00,,---,0.00,VWS V14.01,2013-08-13 23:27:00,
2013-08-13 19:28:00,87.2,75.8,29.85,North,0,0.0,5.0,69,0.00,,---,0.00,VWS V14.01,2013-08-13 23:28:00,
2013-08-13 19:29:00,87.2,75.8,29.85,North,0,0.0,5.0,69,0.00,,---,0.00,VWS V14.01,2013-08-13 23:29:00,
2013-08-13 19:30:00,87.2,76.2,29.85,North,0,0.0,5.0,70,0.00,,---,0.00,VWS V14.01,2013-08-13 23:30:00,
2013-08-13 19:32:00,87.2,75.8,29.85,North,0,0.0,5.0,69,0.00,,---,0.00,VWS V14.01,2013-08-13 23:32:00,
2013-08-13 19:33:00,87.2,75.8,29.85,North,0,0.0,5.0,69,0.00,,---,0.00,VWS V14.01,2013-08-13 23:33:00,
2013-08-13 19:34:00,87.2,75.8,29.84,North,0,0.0,5.0,69,0.00,,---,0.00,VWS V14.01,2013-08-13 23:34:00,
2013-08-13 19:35:00,87.2,75.8,29.84,North,0,6.0,6.0,69,0.00,,---,0.00,VWS V14.01,2013-08-13 23:35:00,
2013-08-13 19:38:00,87.0,75.6,29.84,North,0,0.0,6.0,69,0.00,,---,0.00,VWS V14.01,2013-08-13 23:38:00,
2013-08-13 19:39:00,87.0,75.6,29.84,North,0,0.0,6.0,69,0.00,,---,0.00,VWS V14.01,2013-08-13 23:39:00,
2013-08-13 19:42:00,86.7,75.3,29.84,North,0,0.0,6.0,69,0.00,,---,0.00,VWS V14.01,2013-08-13 23:42:00,
2013-08-13 19:44:00,86.7,75.3,29.84,North,0,0.0,6.0,69,0.00,,---,0.00,VWS V14.01,2013-08-13 23:44:00,
2013-08-13 19:45:00,86.5,75.1,29.84,North,0,0.0,6.0,69,0.00,,---,0.00,VWS V14.01,2013-08-13 23:45:00,
2013-08-13 19:46:00,86.5,75.6,29.84,North,0,0.0,6.0,70,0.00,,---,0.00,VWS V14.01,2013-08-13 23:46:00,
2013-08-13 19:47:00,86.5,75.6,29.84,North,0,0.0,6.0,70,0.00,,---,0.00,VWS V14.01,2013-08-13 23:47:00,
2013-08-13 19:49:00,86.5,75.6,29.86,North,0,0.0,6.0,70,0.00,,---,0.00,VWS V14.01,2013-08-13 23:49:00,
2013-08-13 19:50:00,86.5,75.6,29.86,North,0,0.0,6.0,70,0.00,,---,0.00,VWS V14.01,2013-08-13 23:50:00,
2013-08-13 19:51:00,86.5,75.6,29.86,North,0,0.0,6.0,70,0.00,,---,0.00,VWS V14.01,2013-08-13 23:51:00,
2013-08-13 19:52:00,86.5,76.0,29.86,North,0,0.0,6.0,71,0.00,,---,0.00,VWS V14.01,2013-08-13 23:52:00,
2013-08-13 19:55:00,86.3,75.8,29.86,North,0,0.0,6.0,71,0.00,,---,0.00,VWS V14.01,2013-08-13 23:55:00,
2013-08-13 19:56:00,86.3,75.8,29.86,North,0,4.0,8.0,71,0.00,,---,0.00,VWS V14.01,2013-08-13 23:56:00,
2013-08-13 19:57:00,86.1,75.6,29.86,North,0,0.0,8.0,71,0.00,,---,0.00,VWS V14.01,2013-08-13 23:57:00,
2013-08-13 19:58:00,86.1,75.6,29.86,North,0,0.0,8.0,71,0.00,,---,0.00,VWS V14.01,2013-08-13 23:58:00,
2013-08-13 20:01:00,86.1,75.6,29.86,North,0,0.0,8.0,71,0.00,,---,0.00,VWS V14.01,2013-08-14 00:01:00,
2013-08-13 20:02:00,86.1,75.6,29.86,North,0,0.0,8.0,71,0.00,,---,0.00,VWS V14.01,2013-08-14 00:02:00,
2013-08-13 20:03:00,86.1,75.6,29.86,North,0,0.0,8.0,71,0.00,,---,0.00,VWS V14.01,2013-08-14 00:03:00,
2013-08-13 20:07:00,85.9,75.4,29.86,North,0,0.0,0.0,71,0.00,,---,0.00,VWS V14.01,2013-08-14 00:07:00,
2013-08-13 20:08:00,85.9,75.4,29.86,North,0,0.0,0.0,71,0.00,,---,0.00,VWS V14.01,2013-08-14 00:08:00,
2013-08-13 20:09:00,85.9,75.4,29.86,North,0,0.0,0.0,71,0.00,,---,0.00,VWS V14.01,2013-08-14 00:09:00,
2013-08-13 20:12:00,85.9,75.4,29.86,North,0,0.0,1.0,71,0.00,,---,0.00,VWS V14.01,2013-08-14 00:12:00,
2013-08-13 20:13:00,85.7,75.2,29.86,North,0,0.0,1.0,71,0.00,,---,0.00,VWS V14.01,2013-08-14 00:13:00,
2013-08-13 20:14:00,85.7,75.2,29.86,North,0,0.0,1.0,71,0.00,,---,0.00,VWS V14.01,2013-08-14 00:14:00,
2013-08-13 20:17:00,85.7,75.6,29.86,North,0,0.0,1.0,72,0.00,,---,0.00,VWS V14.01,2013-08-14 00:17:00,
2013-08-13 20:18:00,85.5,75.4,29.86,North,0,0.0,1.0,72,0.00,,---,0.00,VWS V14.01,2013-08-14 00:18:00,
2013-08-13 20:19:00,85.5,75.4,29.86,North,0,0.0,1.0,72,0.00,,---,0.00,VWS V14.01,2013-08-14 00:19:00,
2013-08-13 20:20:00,85.5,75.9,29.86,North,0,0.0,1.0,73,0.00,,---,0.00,VWS V14.01,2013-08-14 00:20:00,
2013-08-13 20:24:00,85.5,75.9,29.86,North,0,0.0,1.0,73,0.00,,---,0.00,VWS V14.01,2013-08-14 00:24:00,
2013-08-13 20:25:00,85.3,75.7,29.86,North,0,0.0,1.0,73,0.00,,---,0.00,VWS V14.01,2013-08-14 00:25:00,
2013-08-13 20:26:00,85.3,75.7,29.86,North,0,0.0,1.0,73,0.00,,---,0.00,VWS V14.01,2013-08-14 00:26:00,
2013-08-13 20:30:00,85.1,75.9,29.86,North,0,0.0,5.0,74,0.00,,---,0.00,VWS V14.01,2013-08-14 00:30:00,
2013-08-13 20:32:00,85.1,75.9,29.86,North,0,0.0,5.0,74,0.00,,---,0.00,VWS V14.01,2013-08-14 00:32:00,
2013-08-13 20:34:00,85.1,75.9,29.86,North,0,0.0,5.0,74,0.00,,---,0.00,VWS V14.01,2013-08-14 00:34:00,
2013-08-13 20:35:00,85.1,75.9,29.86,North,0,0.0,5.0,74,0.00,,---,0.00,VWS V14.01,2013-08-14 00:35:00,
2013-08-13 20:36:00,84.9,75.7,29.86,North,0,0.0,5.0,74,0.00,,---,0.00,VWS V14.01,2013-08-14 00:36:00,
2013-08-13 20:38:00,84.9,75.7,29.86,North,0,1.0,5.0,74,0.00,,---,0.00,VWS V14.01,2013-08-14 00:38:00,
2013-08-13 20:39:00,84.9,75.7,29.86,North,0,0.0,5.0,74,0.00,,---,0.00,VWS V14.01,2013-08-14 00:39:00,
2013-08-13 20:42:00,84.9,75.7,29.86,North,0,0.0,5.0,74,0.00,,---,0.00,VWS V14.01,2013-08-14 00:42:00,
2013-08-13 20:43:00,84.9,75.7,29.86,North,0,0.0,5.0,74,0.00,,---,0.00,VWS V14.01,2013-08-14 00:43:00,
2013-08-13 20:44:00,84.9,75.7,29.86,North,0,0.0,5.0,74,0.00,,---,0.00,VWS V14.01,2013-08-14 00:44:00,
2013-08-13 20:47:00,84.9,75.7,29.86,North,0,0.0,5.0,74,0.00,,---,0.00,VWS V14.01,2013-08-14 00:47:00,
2013-08-13 20:51:00,84.9,76.1,29.87,North,0,0.0,5.0,75,0.00,,---,0.00,VWS V14.01,2013-08-14 00:51:00,
2013-08-13 20:52:00,84.9,76.1,29.87,North,0,0.0,5.0,75,0.00,,---,0.00,VWS V14.01,2013-08-14 00:52:00,
2013-08-13 20:56:00,84.7,75.9,29.87,North,0,0.0,5.0,75,0.00,,---,0.00,VWS V14.01,2013-08-14 00:56:00,
2013-08-13 20:57:00,84.7,75.9,29.87,North,0,0.0,5.0,75,0.00,,---,0.00,VWS V14.01,2013-08-14 00:57:00,
2013-08-13 20:58:00,84.7,75.9,29.87,North,0,0.0,5.0,75,0.00,,---,0.00,VWS V14.01,2013-08-14 00:58:00,
2013-08-13 20:59:00,84.7,75.9,29.87,North,0,0.0,5.0,75,0.00,,---,0.00,VWS V14.01,2013-08-14 00:59:00,
2013-08-13 21:02:00,84.7,75.9,29.87,North,0,0.0,5.0,75,0.00,,---,0.00,VWS V14.01,2013-08-14 01:02:00,
2013-08-13 21:03:00,84.7,75.9,29.87,North,0,0.0,5.0,75,0.00,,---,0.00,VWS V14.01,2013-08-14 01:03:00,
2013-08-13 21:05:00,84.7,75.9,29.88,North,0,0.0,0.0,75,0.00,,---,0.00,VWS V14.01,2013-08-14 01:05:00,
2013-08-13 21:07:00,84.5,75.7,29.88,North,0,0.0,0.0,75,0.00,,---,0.00,VWS V14.01,2013-08-14 01:07:00,
2013-08-13 21:08:00,84.5,76.1,29.88,North,0,0.0,0.0,76,0.00,,---,0.00,VWS V14.01,2013-08-14 01:08:00,
2013-08-13 21:10:00,84.5,76.1,29.88,North,0,0.0,0.0,76,0.00,,---,0.00,VWS V14.01,2013-08-14 01:10:00,
2013-08-13 21:12:00,84.5,76.1,29.88,North,0,0.0,0.0,76,0.00,,---,0.00,VWS V14.01,2013-08-14 01:12:00,
2013-08-13 21:13:00,84.5,76.1,29.88,North,0,0.0,0.0,76,0.00,,---,0.00,VWS V14.01,2013-08-14 01:13:00,
2013-08-13 21:14:00,84.5,76.1,29.88,North,0,0.0,0.0,76,0.00,,---,0.00,VWS V14.01,2013-08-14 01:14:00,
2013-08-13 21:15:00,84.5,76.1,29.88,North,0,0.0,0.0,76,0.00,,---,0.00,VWS V14.01,2013-08-14 01:15:00,
2013-08-13 21:17:00,84.3,75.9,29.88,North,0,0.0,0.0,76,0.00,,---,0.00,VWS V14.01,2013-08-14 01:17:00,
2013-08-13 21:20:00,84.3,75.9,29.89,North,0,0.0,0.0,76,0.00,,---,0.00,VWS V14.01,2013-08-14 01:20:00,
2013-08-13 21:22:00,84.3,76.3,29.89,North,0,0.0,0.0,77,0.00,,---,0.00,VWS V14.01,2013-08-14 01:22:00,
2013-08-13 21:23:00,84.3,76.3,29.89,North,0,0.0,0.0,77,0.00,,---,0.00,VWS V14.01,2013-08-14 01:23:00,
2013-08-13 21:24:00,84.3,76.3,29.89,North,0,0.0,0.0,77,0.00,,---,0.00,VWS V14.01,2013-08-14 01:24:00,
2013-08-13 21:26:00,84.1,76.1,29.89,North,0,0.0,0.0,77,0.00,,---,0.00,VWS V14.01,2013-08-14 01:26:00,
2013-08-13 21:28:00,84.1,76.1,29.89,North,0,0.0,0.0,77,0.00,,---,0.00,VWS V14.01,2013-08-14 01:28:00,
2013-08-13 21:29:00,84.1,76.1,29.89,North,0,0.0,0.0,77,0.00,,---,0.00,VWS V14.01,2013-08-14 01:29:00,
2013-08-13 21:31:00,84.0,76.0,29.89,North,0,0.0,0.0,77,0.00,,---,0.00,VWS V14.01,2013-08-14 01:31:00,
2013-08-13 21:33:00,84.0,76.0,29.89,North,0,0.0,0.0,77,0.00,,---,0.00,VWS V14.01,2013-08-14 01:33:00,
2013-08-13 21:35:00,84.0,76.4,29.89,North,0,0.0,0.0,78,0.00,,---,0.00,VWS V14.01,2013-08-14 01:35:00,
2013-08-13 21:38:00,83.8,76.2,29.89,North,0,0.0,0.0,78,0.00,,---,0.00,VWS V14.01,2013-08-14 01:38:00,
2013-08-13 21:39:00,83.8,76.2,29.89,North,0,0.0,0.0,78,0.00,,---,0.00,VWS V14.01,2013-08-14 01:39:00,
2013-08-13 21:40:00,83.8,76.2,29.89,North,0,0.0,0.0,78,0.00,,---,0.00,VWS V14.01,2013-08-14 01:40:00,
2013-08-13 21:43:00,83.8,76.2,29.89,North,0,0.0,0.0,78,0.00,,---,0.00,VWS V14.01,2013-08-14 01:43:00,
2013-08-13 21:44:00,83.8,76.2,29.89,North,0,0.0,0.0,78,0.00,,---,0.00,VWS V14.01,2013-08-14 01:44:00,
2013-08-13 21:45:00,83.6,76.0,29.89,North,0,0.0,0.0,78,0.00,,---,0.00,VWS V14.01,2013-08-14 01:45:00,
2013-08-13 21:46:00,83.6,76.0,29.89,North,0,0.0,0.0,78,0.00,,---,0.00,VWS V14.01,2013-08-14 01:46:00,
2013-08-13 21:48:00,83.6,76.4,29.89,North,0,0.0,0.0,79,0.00,,---,0.00,VWS V14.01,2013-08-14 01:48:00,
2013-08-13 21:49:00,83.6,76.4,29.89,North,0,0.0,0.0,79,0.00,,---,0.00,VWS V14.01,2013-08-14 01:49:00,
2013-08-13 21:51:00,83.6,76.4,29.89,North,0,0.0,0.0,79,0.00,,---,0.00,VWS V14.01,2013-08-14 01:51:00,
2013-08-13 21:52:00,83.6,76.4,29.89,North,0,0.0,0.0,79,0.00,,---,0.00,VWS V14.01,2013-08-14 01:52:00,
2013-08-13 21:53:00,83.6,76.4,29.89,North,0,0.0,0.0,79,0.00,,---,0.00,VWS V14.01,2013-08-14 01:53:00,
2013-08-13 21:54:00,83.6,76.4,29.89,North,0,0.0,0.0,79,0.00,,---,0.00,VWS V14.01,2013-08-14 01:54:00,
2013-08-13 21:56:00,83.4,76.2,29.89,North,0,0.0,0.0,79,0.00,,---,0.00,VWS V14.01,2013-08-14 01:56:00,
2013-08-13 21:57:00,83.4,76.2,29.89,North,0,0.0,0.0,79,0.00,,---,0.00,VWS V14.01,2013-08-14 01:57:00,
2013-08-13 21:58:00,83.4,76.2,29.89,North,0,0.0,0.0,79,0.00,,---,0.00,VWS V14.01,2013-08-14 01:58:00,
2013-08-13 21:59:00,83.4,76.2,29.89,North,0,0.0,0.0,79,0.00,,---,0.00,VWS V14.01,2013-08-14 01:59:00,
2013-08-13 22:01:00,83.4,76.2,29.89,North,0,0.0,0.0,79,0.00,,---,0.00,VWS V14.01,2013-08-14 02:01:00,
2013-08-13 22:02:00,83.2,76.0,29.89,North,0,0.0,0.0,79,0.00,,---,0.00,VWS V14.01,2013-08-14 02:02:00,
2013-08-13 22:04:00,83.2,76.4,29.90,North,0,0.0,0.0,80,0.00,,---,0.00,VWS V14.01,2013-08-14 02:04:00,
2013-08-13 22:05:00,83.2,76.0,29.90,North,0,0.0,0.0,79,0.00,,---,0.00,VWS V14.01,2013-08-14 02:05:00,
2013-08-13 22:06:00,83.2,76.4,29.90,North,0,0.0,0.0,80,0.00,,---,0.00,VWS V14.01,2013-08-14 02:06:00,
2013-08-13 22:08:00,83.2,76.4,29.90,North,0,0.0,0.0,80,0.00,,---,0.00,VWS V14.01,2013-08-14 02:08:00,
2013-08-13 22:09:00,83.2,76.4,29.90,North,0,0.0,0.0,80,0.00,,---,0.00,VWS V14.01,2013-08-14 02:09:00,
2013-08-13 22:11:00,83.2,76.8,29.90,North,0,0.0,0.0,81,0.00,,---,0.00,VWS V14.01,2013-08-14 02:11:00,
2013-08-13 22:13:00,83.0,76.6,29.90,North,0,0.0,0.0,81,0.00,,---,0.00,VWS V14.01,2013-08-14 02:13:00,
2013-08-13 22:15:00,83.0,76.6,29.90,North,0,0.0,0.0,81,0.00,,---,0.00,VWS V14.01,2013-08-14 02:15:00,
2013-08-13 22:17:00,83.0,76.6,29.90,North,0,0.0,0.0,81,0.00,,---,0.00,VWS V14.01,2013-08-14 02:17:00,
2013-08-13 22:18:00,82.8,76.8,29.90,North,0,0.0,0.0,82,0.00,,---,0.00,VWS V14.01,2013-08-14 02:18:00,
2013-08-13 22:21:00,82.8,76.4,29.90,North,0,0.0,0.0,81,0.00,,---,0.00,VWS V14.01,2013-08-14 02:21:00,
2013-08-13 22:23:00,82.8,76.8,29.90,North,0,0.0,0.0,82,0.00,,---,0.00,VWS V14.01,2013-08-14 02:23:00,
2013-08-13 22:24:00,82.8,76.8,29.90,North,0,0.0,0.0,82,0.00,,---,0.00,VWS V14.01,2013-08-14 02:24:00,
2013-08-13 22:25:00,82.8,76.8,29.90,North,0,0.0,0.0,82,0.00,,---,0.00,VWS V14.01,2013-08-14 02:25:00,
2013-08-13 22:27:00,82.6,76.6,29.90,North,0,0.0,0.0,82,0.00,,---,0.00,VWS V14.01,2013-08-14 02:27:00,
2013-08-13 22:29:00,82.6,76.9,29.90,North,0,0.0,0.0,83,0.00,,---,0.00,VWS V14.01,2013-08-14 02:29:00,
2013-08-13 22:30:00,82.6,76.9,29.90,North,0,0.0,0.0,83,0.00,,---,0.00,VWS V14.01,2013-08-14 02:30:00,
2013-08-13 22:33:00,82.4,76.7,29.90,North,0,0.0,0.0,83,0.00,,---,0.00,VWS V14.01,2013-08-14 02:33:00,
2013-08-13 22:34:00,82.4,76.7,29.90,North,0,0.0,0.0,83,0.00,,---,0.00,VWS V14.01,2013-08-14 02:34:00,
2013-08-13 22:35:00,82.4,76.7,29.90,North,0,0.0,0.0,83,0.00,,---,0.00,VWS V14.01,2013-08-14 02:35:00,
2013-08-13 22:36:00,82.4,76.7,29.90,North,0,0.0,0.0,83,0.00,,---,0.00,VWS V14.01,2013-08-14 02:36:00,
2013-08-13 22:38:00,82.2,76.9,29.90,North,0,0.0,0.0,84,0.00,,---,0.00,VWS V14.01,2013-08-14 02:38:00,
2013-08-13 22:40:00,82.2,76.9,29.90,North,0,0.0,0.0,84,0.00,,---,0.00,VWS V14.01,2013-08-14 02:40:00,
2013-08-13 22:41:00,82.2,76.9,29.90,North,0,0.0,0.0,84,0.00,,---,0.00,VWS V14.01,2013-08-14 02:41:00,
2013-08-13 22:45:00,82.0,76.7,29.90,North,0,0.0,0.0,84,0.00,,---,0.00,VWS V14.01,2013-08-14 02:45:00,
2013-08-13 22:46:00,82.0,76.7,29.90,North,0,0.0,0.0,84,0.00,,---,0.00,VWS V14.01,2013-08-14 02:46:00,
2013-08-13 22:47:00,82.0,76.7,29.90,North,0,0.0,0.0,84,0.00,,---,0.00,VWS V14.01,2013-08-14 02:47:00,
2013-08-13 22:50:00,82.0,76.7,29.91,North,0,0.0,0.0,84,0.00,,---,0.00,VWS V14.01,2013-08-14 02:50:00,
2013-08-13 22:51:00,82.0,76.7,29.91,North,0,0.0,0.0,84,0.00,,---,0.00,VWS V14.01,2013-08-14 02:51:00,
2013-08-13 22:52:00,82.0,76.7,29.91,North,0,0.0,0.0,84,0.00,,---,0.00,VWS V14.01,2013-08-14 02:52:00,
2013-08-13 22:54:00,82.0,76.7,29.91,North,0,0.0,0.0,84,0.00,,---,0.00,VWS V14.01,2013-08-14 02:54:00,
2013-08-13 22:57:00,81.8,76.5,29.91,North,0,0.0,0.0,84,0.00,,---,0.00,VWS V14.01,2013-08-14 02:57:00,
2013-08-13 22:59:00,81.8,76.5,29.91,North,0,0.0,0.0,84,0.00,,---,0.00,VWS V14.01,2013-08-14 02:59:00,
2013-08-13 23:00:00,81.8,76.5,29.91,North,0,0.0,0.0,84,0.00,,---,0.00,VWS V14.01,2013-08-14 03:00:00,
2013-08-13 23:03:00,81.8,76.5,29.91,North,0,0.0,0.0,84,0.00,,---,0.00,VWS V14.01,2013-08-14 03:03:00,
2013-08-13 23:04:00,81.8,76.5,29.92,North,0,0.0,0.0,84,0.00,,---,0.00,VWS V14.01,2013-08-14 03:04:00,
2013-08-13 23:05:00,81.8,76.5,29.92,North,0,0.0,0.0,84,0.00,,---,0.00,VWS V14.01,2013-08-14 03:05:00,
2013-08-13 23:07:00,81.8,76.5,29.92,North,0,0.0,0.0,84,0.00,,---,0.00,VWS V14.01,2013-08-14 03:07:00,
2013-08-13 23:08:00,81.8,76.5,29.92,North,0,0.0,0.0,84,0.00,,---,0.00,VWS V14.01,2013-08-14 03:08:00,
2013-08-13 23:09:00,82.0,76.7,29.92,North,0,0.0,0.0,84,0.00,,---,0.00,VWS V14.01,2013-08-14 03:09:00,
2013-08-13 23:10:00,82.0,76.7,29.92,North,0,0.0,0.0,84,0.00,,---,0.00,VWS V14.01,2013-08-14 03:10:00,
2013-08-13 23:11:00,82.0,76.7,29.92,North,0,0.0,0.0,84,0.00,,---,0.00,VWS V14.01,2013-08-14 03:11:00,
2013-08-13 23:14:00,82.0,76.7,29.92,North,0,0.0,0.0,84,0.00,,---,0.00,VWS V14.01,2013-08-14 03:14:00,
2013-08-13 23:15:00,82.0,76.7,29.92,North,0,0.0,0.0,84,0.00,,---,0.00,VWS V14.01,2013-08-14 03:15:00,
2013-08-13 23:18:00,82.0,76.7,29.92,North,0,0.0,0.0,84,0.00,,---,0.00,VWS V14.01,2013-08-14 03:18:00,
2013-08-13 23:19:00,82.0,76.7,29.92,North,0,0.0,0.0,84,0.00,,---,0.00,VWS V14.01,2013-08-14 03:19:00,
2013-08-13 23:20:00,82.0,76.7,29.92,North,0,0.0,0.0,84,0.00,,---,0.00,VWS V14.01,2013-08-14 03:20:00,
2013-08-13 23:21:00,82.0,76.7,29.92,North,0,0.0,0.0,84,0.00,,---,0.00,VWS V14.01,2013-08-14 03:21:00,
2013-08-13 23:23:00,82.0,76.7,29.92,North,0,0.0,0.0,84,0.00,,---,0.00,VWS V14.01,2013-08-14 03:23:00,
2013-08-13 23:25:00,82.2,77.2,29.92,North,0,0.0,0.0,85,0.00,,---,0.00,VWS V14.01,2013-08-14 03:25:00,
2013-08-13 23:26:00,82.2,77.2,29.92,North,0,0.0,0.0,85,0.00,,---,0.00,VWS V14.01,2013-08-14 03:26:00,
2013-08-13 23:28:00,82.2,77.2,29.92,North,0,0.0,0.0,85,0.00,,---,0.00,VWS V14.01,2013-08-14 03:28:00,
2013-08-13 23:31:00,82.0,77.1,29.92,North,0,0.0,0.0,85,0.00,,---,0.00,VWS V14.01,2013-08-14 03:31:00,
2013-08-13 23:32:00,82.0,77.1,29.92,North,0,0.0,0.0,85,0.00,,---,0.00,VWS V14.01,2013-08-14 03:32:00,
2013-08-13 23:33:00,82.0,77.1,29.91,North,0,0.0,0.0,85,0.00,,---,0.00,VWS V14.01,2013-08-14 03:33:00,
2013-08-13 23:34:00,82.0,77.1,29.91,North,0,0.0,0.0,85,0.00,,---,0.00,VWS V14.01,2013-08-14 03:34:00,
2013-08-13 23:36:00,82.0,77.1,29.91,North,0,0.0,0.0,85,0.00,,---,0.00,VWS V14.01,2013-08-14 03:36:00,
2013-08-13 23:38:00,82.0,77.1,29.91,North,0,0.0,0.0,85,0.00,,---,0.00,VWS V14.01,2013-08-14 03:38:00,
2013-08-13 23:40:00,81.8,76.8,29.91,North,0,0.0,0.0,85,0.00,,---,0.00,VWS V14.01,2013-08-14 03:40:00,
2013-08-13 23:42:00,81.8,76.8,29.91,North,0,0.0,0.0,85,0.00,,---,0.00,VWS V14.01,2013-08-14 03:42:00,
2013-08-13 23:44:00,81.8,76.8,29.91,North,0,0.0,0.0,85,0.00,,---,0.00,VWS V14.01,2013-08-14 03:44:00,
2013-08-13 23:45:00,81.8,76.8,29.91,North,0,0.0,0.0,85,0.00,,---,0.00,VWS V14.01,2013-08-14 03:45:00,
2013-08-13 23:46:00,81.8,76.8,29.91,North,0,0.0,0.0,85,0.00,,---,0.00,VWS V14.01,2013-08-14 03:46:00,
2013-08-13 23:48:00,82.0,77.1,29.91,North,0,0.0,0.0,85,0.00,,---,0.00,VWS V14.01,2013-08-14 03:48:00,
2013-08-13 23:50:00,82.0,77.1,29.91,North,0,0.0,0.0,85,0.00,,---,0.00,VWS V14.01,2013-08-14 03:50:00,
2013-08-13 23:51:00,82.0,77.1,29.91,North,0,0.0,0.0,85,0.00,,---,0.00,VWS V14.01,2013-08-14 03:51:00,
2013-08-13 23:53:00,82.0,77.1,29.91,North,0,0.0,0.0,85,0.00,,---,0.00,VWS V14.01,2013-08-14 03:53:00,
2013-08-13 23:54:00,82.0,77.1,29.91,North,0,0.0,0.0,85,0.00,,---,0.00,VWS V14.01,2013-08-14 03:54:00,
2013-08-13 23:56:00,82.0,77.1,29.91,North,0,0.0,0.0,85,0.00,,---,0.00,VWS V14.01,2013-08-14 03:56:00,
2013-08-13 23:57:00,82.0,77.1,29.91,North,0,0.0,0.0,85,0.00,,---,0.00,VWS V14.01,2013-08-14 03:57:00,
2013-08-13 23:58:00,82.0,77.1,29.91,North,0,0.0,0.0,85,0.00,,---,0.00,VWS V14.01,2013-08-14 03:58:00,
2013-08-13 23:59:00,82.0,77.1,29.91,North,0,0.0,0.0,85,0.00,,---,0.00,VWS V14.01,2013-08-14 03:59:00,